<?xml version="1.0" encoding="UTF-8" standalone="no" ?>
<gpx xmlns="http://www.topografix.com/GPX/1/1" xmlns:xsi="http://www.w3.org/2001/XMLSchema-instance" xsi:schemaLocation="http://www.topografix.com/GPX/1/1 http://www.topografix.com/GPX/1/1/gpx.xsd" version="1.1" creator="VisuGPX - https://www.visugpx.com">
  <metadata>
    <name>GR34 : de la pointe du Grouin à Yffiniac</name>
    <desc><![CDATA[sur le GR34 le 28/09/2013]]></desc>
  </metadata>
  <trk>
    <name><![CDATA[GR34 : de la pointe du Grouin à Yffiniac_1]]></name>
    <trkseg>
      <trkpt lat="48.53119" lon="-2.68131">
        <ele>28.659051</ele>
        <time>2013-09-28T15:06:53Z</time>
      </trkpt>
      <trkpt lat="48.53119" lon="-2.68131">
        <ele>28.869289</ele>
        <time>2013-09-28T15:06:54Z</time>
      </trkpt>
      <trkpt lat="48.53102" lon="-2.68132">
        <ele>27.8</ele>
        <time>2013-09-28T15:07:31Z</time>
      </trkpt>
      <trkpt lat="48.53094" lon="-2.68134">
        <ele>27.6</ele>
        <time>2013-09-28T15:07:41Z</time>
      </trkpt>
      <trkpt lat="48.53085" lon="-2.68138">
        <ele>27.1</ele>
        <time>2013-09-28T15:07:52Z</time>
      </trkpt>
      <trkpt lat="48.53077" lon="-2.68139">
        <ele>26.6</ele>
        <time>2013-09-28T15:08:00Z</time>
      </trkpt>
      <trkpt lat="48.53075" lon="-2.6814">
        <ele>26.5</ele>
        <time>2013-09-28T15:08:01Z</time>
      </trkpt>
      <trkpt lat="48.53059" lon="-2.68141">
        <ele>25.8</ele>
        <time>2013-09-28T15:08:17Z</time>
      </trkpt>
      <trkpt lat="48.53051" lon="-2.68141">
        <ele>25.2</ele>
        <time>2013-09-28T15:08:26Z</time>
      </trkpt>
      <trkpt lat="48.53044" lon="-2.68135">
        <ele>24.6</ele>
        <time>2013-09-28T15:08:33Z</time>
      </trkpt>
      <trkpt lat="48.53041" lon="-2.68124">
        <ele>24</ele>
        <time>2013-09-28T15:08:40Z</time>
      </trkpt>
      <trkpt lat="48.5304" lon="-2.68112">
        <ele>23.3</ele>
        <time>2013-09-28T15:08:47Z</time>
      </trkpt>
      <trkpt lat="48.53038" lon="-2.68098">
        <ele>22.7</ele>
        <time>2013-09-28T15:08:55Z</time>
      </trkpt>
      <trkpt lat="48.53039" lon="-2.68085">
        <ele>22.1</ele>
        <time>2013-09-28T15:09:03Z</time>
      </trkpt>
      <trkpt lat="48.53039" lon="-2.68083">
        <ele>22.1</ele>
        <time>2013-09-28T15:09:04Z</time>
      </trkpt>
      <trkpt lat="48.53032" lon="-2.68063">
        <ele>21.4</ele>
        <time>2013-09-28T15:09:18Z</time>
      </trkpt>
      <trkpt lat="48.53026" lon="-2.68053">
        <ele>21.2</ele>
        <time>2013-09-28T15:09:26Z</time>
      </trkpt>
      <trkpt lat="48.53017" lon="-2.68053">
        <ele>21.1</ele>
        <time>2013-09-28T15:09:33Z</time>
      </trkpt>
      <trkpt lat="48.53008" lon="-2.68053">
        <ele>21</ele>
        <time>2013-09-28T15:09:40Z</time>
      </trkpt>
      <trkpt lat="48.53001" lon="-2.68052">
        <ele>20.9</ele>
        <time>2013-09-28T15:09:46Z</time>
      </trkpt>
      <trkpt lat="48.52992" lon="-2.68051">
        <ele>20.8</ele>
        <time>2013-09-28T15:09:53Z</time>
      </trkpt>
      <trkpt lat="48.52984" lon="-2.6805">
        <ele>20.8</ele>
        <time>2013-09-28T15:10:00Z</time>
      </trkpt>
      <trkpt lat="48.52976" lon="-2.68051">
        <ele>20.6</ele>
        <time>2013-09-28T15:10:08Z</time>
      </trkpt>
      <trkpt lat="48.52974" lon="-2.68051">
        <ele>20.5</ele>
        <time>2013-09-28T15:10:09Z</time>
      </trkpt>
      <trkpt lat="48.5296" lon="-2.68059">
        <ele>20.2</ele>
        <time>2013-09-28T15:10:23Z</time>
      </trkpt>
      <trkpt lat="48.52952" lon="-2.68064">
        <ele>20.2</ele>
        <time>2013-09-28T15:10:30Z</time>
      </trkpt>
      <trkpt lat="48.52944" lon="-2.68069">
        <ele>20.1</ele>
        <time>2013-09-28T15:10:37Z</time>
      </trkpt>
      <trkpt lat="48.52936" lon="-2.68071">
        <ele>20.1</ele>
        <time>2013-09-28T15:10:43Z</time>
      </trkpt>
      <trkpt lat="48.52928" lon="-2.68072">
        <ele>20.1</ele>
        <time>2013-09-28T15:10:49Z</time>
      </trkpt>
      <trkpt lat="48.5292" lon="-2.68076">
        <ele>20.1</ele>
        <time>2013-09-28T15:10:56Z</time>
      </trkpt>
      <trkpt lat="48.52912" lon="-2.68078">
        <ele>20.2</ele>
        <time>2013-09-28T15:11:03Z</time>
      </trkpt>
      <trkpt lat="48.52903" lon="-2.6808">
        <ele>20.4</ele>
        <time>2013-09-28T15:11:13Z</time>
      </trkpt>
      <trkpt lat="48.52902" lon="-2.6808">
        <ele>20.4</ele>
        <time>2013-09-28T15:11:14Z</time>
      </trkpt>
      <trkpt lat="48.52887" lon="-2.68084">
        <ele>20.8</ele>
        <time>2013-09-28T15:11:28Z</time>
      </trkpt>
      <trkpt lat="48.52879" lon="-2.68082">
        <ele>21.1</ele>
        <time>2013-09-28T15:11:35Z</time>
      </trkpt>
      <trkpt lat="48.52871" lon="-2.68076">
        <ele>21.4</ele>
        <time>2013-09-28T15:11:42Z</time>
      </trkpt>
      <trkpt lat="48.52867" lon="-2.68065">
        <ele>21.6</ele>
        <time>2013-09-28T15:11:49Z</time>
      </trkpt>
      <trkpt lat="48.52863" lon="-2.68053">
        <ele>21.9</ele>
        <time>2013-09-28T15:11:57Z</time>
      </trkpt>
      <trkpt lat="48.52859" lon="-2.68042">
        <ele>22.1</ele>
        <time>2013-09-28T15:12:05Z</time>
      </trkpt>
      <trkpt lat="48.52857" lon="-2.6803">
        <ele>22.1</ele>
        <time>2013-09-28T15:12:12Z</time>
      </trkpt>
      <trkpt lat="48.52856" lon="-2.68018">
        <ele>22</ele>
        <time>2013-09-28T15:12:18Z</time>
      </trkpt>
      <trkpt lat="48.52857" lon="-2.68016">
        <ele>22</ele>
        <time>2013-09-28T15:12:19Z</time>
      </trkpt>
      <trkpt lat="48.52854" lon="-2.67993">
        <ele>21.5</ele>
        <time>2013-09-28T15:12:32Z</time>
      </trkpt>
      <trkpt lat="48.52851" lon="-2.67982">
        <ele>21.3</ele>
        <time>2013-09-28T15:12:38Z</time>
      </trkpt>
      <trkpt lat="48.52846" lon="-2.67971">
        <ele>20.8</ele>
        <time>2013-09-28T15:12:47Z</time>
      </trkpt>
      <trkpt lat="48.5284" lon="-2.67963">
        <ele>20.5</ele>
        <time>2013-09-28T15:12:55Z</time>
      </trkpt>
      <trkpt lat="48.52833" lon="-2.67957">
        <ele>20.2</ele>
        <time>2013-09-28T15:13:02Z</time>
      </trkpt>
      <trkpt lat="48.52825" lon="-2.67951">
        <ele>19.9</ele>
        <time>2013-09-28T15:13:10Z</time>
      </trkpt>
      <trkpt lat="48.52817" lon="-2.67947">
        <ele>19.7</ele>
        <time>2013-09-28T15:13:18Z</time>
      </trkpt>
      <trkpt lat="48.52809" lon="-2.67944">
        <ele>19.7</ele>
        <time>2013-09-28T15:13:27Z</time>
      </trkpt>
      <trkpt lat="48.52808" lon="-2.67944">
        <ele>19.7</ele>
        <time>2013-09-28T15:13:28Z</time>
      </trkpt>
      <trkpt lat="48.52791" lon="-2.67936">
        <ele>19.9</ele>
        <time>2013-09-28T15:13:48Z</time>
      </trkpt>
      <trkpt lat="48.52783" lon="-2.67937">
        <ele>20.1</ele>
        <time>2013-09-28T15:13:56Z</time>
      </trkpt>
      <trkpt lat="48.52775" lon="-2.6794">
        <ele>20.3</ele>
        <time>2013-09-28T15:14:02Z</time>
      </trkpt>
      <trkpt lat="48.52767" lon="-2.67943">
        <ele>20.6</ele>
        <time>2013-09-28T15:14:09Z</time>
      </trkpt>
      <trkpt lat="48.52758" lon="-2.67945">
        <ele>20.9</ele>
        <time>2013-09-28T15:14:16Z</time>
      </trkpt>
      <trkpt lat="48.52749" lon="-2.67944">
        <ele>21.2</ele>
        <time>2013-09-28T15:14:23Z</time>
      </trkpt>
      <trkpt lat="48.52741" lon="-2.67941">
        <ele>21.5</ele>
        <time>2013-09-28T15:14:30Z</time>
      </trkpt>
      <trkpt lat="48.5274" lon="-2.67941">
        <ele>21.5</ele>
        <time>2013-09-28T15:14:31Z</time>
      </trkpt>
      <trkpt lat="48.52724" lon="-2.67945">
        <ele>21.9</ele>
        <time>2013-09-28T15:14:44Z</time>
      </trkpt>
      <trkpt lat="48.52716" lon="-2.67943">
        <ele>22.1</ele>
        <time>2013-09-28T15:14:51Z</time>
      </trkpt>
      <trkpt lat="48.52708" lon="-2.67939">
        <ele>22.3</ele>
        <time>2013-09-28T15:14:58Z</time>
      </trkpt>
      <trkpt lat="48.52699" lon="-2.67938">
        <ele>22.6</ele>
        <time>2013-09-28T15:15:05Z</time>
      </trkpt>
      <trkpt lat="48.52691" lon="-2.67939">
        <ele>22.9</ele>
        <time>2013-09-28T15:15:12Z</time>
      </trkpt>
      <trkpt lat="48.52682" lon="-2.6794">
        <ele>24.9</ele>
        <time>2013-09-28T15:15:19Z</time>
      </trkpt>
      <trkpt lat="48.52674" lon="-2.67942">
        <ele>24.8</ele>
        <time>2013-09-28T15:15:25Z</time>
      </trkpt>
      <trkpt lat="48.52665" lon="-2.67945">
        <ele>25</ele>
        <time>2013-09-28T15:15:32Z</time>
      </trkpt>
      <trkpt lat="48.52664" lon="-2.67945">
        <ele>25</ele>
        <time>2013-09-28T15:15:33Z</time>
      </trkpt>
      <trkpt lat="48.52649" lon="-2.67948">
        <ele>24.4</ele>
        <time>2013-09-28T15:15:46Z</time>
      </trkpt>
      <trkpt lat="48.5264" lon="-2.67951">
        <ele>24.6</ele>
        <time>2013-09-28T15:15:53Z</time>
      </trkpt>
      <trkpt lat="48.52632" lon="-2.67955">
        <ele>22.3</ele>
        <time>2013-09-28T15:16:00Z</time>
      </trkpt>
      <trkpt lat="48.52624" lon="-2.67955">
        <ele>23.6</ele>
        <time>2013-09-28T15:16:07Z</time>
      </trkpt>
      <trkpt lat="48.52615" lon="-2.67953">
        <ele>24.3</ele>
        <time>2013-09-28T15:16:15Z</time>
      </trkpt>
      <trkpt lat="48.52607" lon="-2.67952">
        <ele>24.7</ele>
        <time>2013-09-28T15:16:22Z</time>
      </trkpt>
      <trkpt lat="48.52598" lon="-2.67951">
        <ele>24.9</ele>
        <time>2013-09-28T15:16:29Z</time>
      </trkpt>
      <trkpt lat="48.5259" lon="-2.6795">
        <ele>24.3</ele>
        <time>2013-09-28T15:16:35Z</time>
      </trkpt>
      <trkpt lat="48.52589" lon="-2.6795">
        <ele>24</ele>
        <time>2013-09-28T15:16:36Z</time>
      </trkpt>
      <trkpt lat="48.52574" lon="-2.67945">
        <ele>24.9</ele>
        <time>2013-09-28T15:16:49Z</time>
      </trkpt>
      <trkpt lat="48.52566" lon="-2.67939">
        <ele>24.9</ele>
        <time>2013-09-28T15:16:57Z</time>
      </trkpt>
      <trkpt lat="48.52558" lon="-2.67935">
        <ele>25.5</ele>
        <time>2013-09-28T15:17:04Z</time>
      </trkpt>
      <trkpt lat="48.52551" lon="-2.67931">
        <ele>25.5</ele>
        <time>2013-09-28T15:17:11Z</time>
      </trkpt>
      <trkpt lat="48.52543" lon="-2.67928">
        <ele>26.4</ele>
        <time>2013-09-28T15:17:18Z</time>
      </trkpt>
      <trkpt lat="48.52535" lon="-2.67925">
        <ele>25.7</ele>
        <time>2013-09-28T15:17:25Z</time>
      </trkpt>
      <trkpt lat="48.52527" lon="-2.67923">
        <ele>26.8</ele>
        <time>2013-09-28T15:17:32Z</time>
      </trkpt>
      <trkpt lat="48.52519" lon="-2.67919">
        <ele>26.8</ele>
        <time>2013-09-28T15:17:39Z</time>
      </trkpt>
      <trkpt lat="48.52518" lon="-2.67919">
        <ele>26.8</ele>
        <time>2013-09-28T15:17:40Z</time>
      </trkpt>
      <trkpt lat="48.52502" lon="-2.6792">
        <ele>26.5</ele>
        <time>2013-09-28T15:17:53Z</time>
      </trkpt>
      <trkpt lat="48.52493" lon="-2.67923">
        <ele>25.8</ele>
        <time>2013-09-28T15:18:00Z</time>
      </trkpt>
      <trkpt lat="48.52484" lon="-2.67925">
        <ele>26.4</ele>
        <time>2013-09-28T15:18:07Z</time>
      </trkpt>
      <trkpt lat="48.52476" lon="-2.67923">
        <ele>25.2</ele>
        <time>2013-09-28T15:18:14Z</time>
      </trkpt>
      <trkpt lat="48.52468" lon="-2.6792">
        <ele>26.6</ele>
        <time>2013-09-28T15:18:22Z</time>
      </trkpt>
      <trkpt lat="48.52459" lon="-2.6792">
        <ele>26.8</ele>
        <time>2013-09-28T15:18:30Z</time>
      </trkpt>
      <trkpt lat="48.5245" lon="-2.67924">
        <ele>25.5</ele>
        <time>2013-09-28T15:18:40Z</time>
      </trkpt>
      <trkpt lat="48.52449" lon="-2.67925">
        <ele>25.4</ele>
        <time>2013-09-28T15:18:41Z</time>
      </trkpt>
      <trkpt lat="48.52435" lon="-2.67934">
        <ele>24.2</ele>
        <time>2013-09-28T15:18:54Z</time>
      </trkpt>
      <trkpt lat="48.52427" lon="-2.67939">
        <ele>23.5</ele>
        <time>2013-09-28T15:19:01Z</time>
      </trkpt>
      <trkpt lat="48.52419" lon="-2.67943">
        <ele>22.3</ele>
        <time>2013-09-28T15:19:08Z</time>
      </trkpt>
      <trkpt lat="48.52411" lon="-2.67943">
        <ele>21.6</ele>
        <time>2013-09-28T15:19:14Z</time>
      </trkpt>
      <trkpt lat="48.52404" lon="-2.67936">
        <ele>21.9</ele>
        <time>2013-09-28T15:19:20Z</time>
      </trkpt>
      <trkpt lat="48.52402" lon="-2.67924">
        <ele>21.4</ele>
        <time>2013-09-28T15:19:27Z</time>
      </trkpt>
      <trkpt lat="48.52398" lon="-2.67913">
        <ele>20.9</ele>
        <time>2013-09-28T15:19:34Z</time>
      </trkpt>
      <trkpt lat="48.52391" lon="-2.67907">
        <ele>20.1</ele>
        <time>2013-09-28T15:19:41Z</time>
      </trkpt>
      <trkpt lat="48.5239" lon="-2.67905">
        <ele>19.9</ele>
        <time>2013-09-28T15:19:42Z</time>
      </trkpt>
      <trkpt lat="48.52383" lon="-2.67885">
        <ele>19.7</ele>
        <time>2013-09-28T15:19:54Z</time>
      </trkpt>
      <trkpt lat="48.52382" lon="-2.67872">
        <ele>20</ele>
        <time>2013-09-28T15:20:01Z</time>
      </trkpt>
      <trkpt lat="48.52381" lon="-2.67859">
        <ele>19.9</ele>
        <time>2013-09-28T15:20:09Z</time>
      </trkpt>
      <trkpt lat="48.52381" lon="-2.67846">
        <ele>16.3</ele>
        <time>2013-09-28T15:20:28Z</time>
      </trkpt>
      <trkpt lat="48.52372" lon="-2.67844">
        <ele>13.4</ele>
        <time>2013-09-28T15:20:47Z</time>
      </trkpt>
      <trkpt lat="48.52372" lon="-2.67844">
        <ele>13</ele>
        <time>2013-09-28T15:20:48Z</time>
      </trkpt>
      <trkpt lat="48.52363" lon="-2.67823">
        <ele>11.1</ele>
        <time>2013-09-28T15:21:31Z</time>
      </trkpt>
      <trkpt lat="48.52358" lon="-2.67813">
        <ele>13.5</ele>
        <time>2013-09-28T15:21:51Z</time>
      </trkpt>
      <trkpt lat="48.52357" lon="-2.67812">
        <ele>13.7</ele>
        <time>2013-09-28T15:21:52Z</time>
      </trkpt>
      <trkpt lat="48.52345" lon="-2.67796">
        <ele>14.9</ele>
        <time>2013-09-28T15:22:13Z</time>
      </trkpt>
      <trkpt lat="48.52338" lon="-2.67789">
        <ele>15.4</ele>
        <time>2013-09-28T15:22:22Z</time>
      </trkpt>
      <trkpt lat="48.52331" lon="-2.67782">
        <ele>16.9</ele>
        <time>2013-09-28T15:22:34Z</time>
      </trkpt>
      <trkpt lat="48.52323" lon="-2.67777">
        <ele>18.5</ele>
        <time>2013-09-28T15:22:44Z</time>
      </trkpt>
      <trkpt lat="48.52315" lon="-2.67781">
        <ele>19.1</ele>
        <time>2013-09-28T15:22:53Z</time>
      </trkpt>
      <trkpt lat="48.52314" lon="-2.67782">
        <ele>19.3</ele>
        <time>2013-09-28T15:22:54Z</time>
      </trkpt>
      <trkpt lat="48.52299" lon="-2.67786">
        <ele>19.8</ele>
        <time>2013-09-28T15:23:05Z</time>
      </trkpt>
      <trkpt lat="48.5229" lon="-2.67784">
        <ele>20.6</ele>
        <time>2013-09-28T15:23:12Z</time>
      </trkpt>
      <trkpt lat="48.52282" lon="-2.67785">
        <ele>21.9</ele>
        <time>2013-09-28T15:23:26Z</time>
      </trkpt>
      <trkpt lat="48.52275" lon="-2.67793">
        <ele>21.7</ele>
        <time>2013-09-28T15:23:34Z</time>
      </trkpt>
      <trkpt lat="48.52268" lon="-2.67798">
        <ele>20.8</ele>
        <time>2013-09-28T15:23:41Z</time>
      </trkpt>
      <trkpt lat="48.52259" lon="-2.67799">
        <ele>20.1</ele>
        <time>2013-09-28T15:23:48Z</time>
      </trkpt>
      <trkpt lat="48.52251" lon="-2.67802">
        <ele>19.5</ele>
        <time>2013-09-28T15:23:55Z</time>
      </trkpt>
      <trkpt lat="48.5225" lon="-2.67803">
        <ele>19.7</ele>
        <time>2013-09-28T15:23:56Z</time>
      </trkpt>
      <trkpt lat="48.5224" lon="-2.67787">
        <ele>20</ele>
        <time>2013-09-28T15:24:11Z</time>
      </trkpt>
      <trkpt lat="48.52237" lon="-2.67776">
        <ele>20.9</ele>
        <time>2013-09-28T15:24:19Z</time>
      </trkpt>
      <trkpt lat="48.52231" lon="-2.67765">
        <ele>21.6</ele>
        <time>2013-09-28T15:24:28Z</time>
      </trkpt>
      <trkpt lat="48.52226" lon="-2.67755">
        <ele>21.6</ele>
        <time>2013-09-28T15:24:36Z</time>
      </trkpt>
      <trkpt lat="48.52221" lon="-2.67744">
        <ele>23</ele>
        <time>2013-09-28T15:24:44Z</time>
      </trkpt>
      <trkpt lat="48.52218" lon="-2.67733">
        <ele>23.2</ele>
        <time>2013-09-28T15:24:53Z</time>
      </trkpt>
      <trkpt lat="48.52212" lon="-2.67724">
        <ele>24.9</ele>
        <time>2013-09-28T15:25:02Z</time>
      </trkpt>
      <trkpt lat="48.52211" lon="-2.67724">
        <ele>24.9</ele>
        <time>2013-09-28T15:25:03Z</time>
      </trkpt>
      <trkpt lat="48.52195" lon="-2.6772">
        <ele>24.5</ele>
        <time>2013-09-28T15:25:18Z</time>
      </trkpt>
      <trkpt lat="48.52187" lon="-2.67719">
        <ele>24.6</ele>
        <time>2013-09-28T15:25:26Z</time>
      </trkpt>
      <trkpt lat="48.5218" lon="-2.67714">
        <ele>24.3</ele>
        <time>2013-09-28T15:25:33Z</time>
      </trkpt>
      <trkpt lat="48.52172" lon="-2.67711">
        <ele>23.5</ele>
        <time>2013-09-28T15:25:40Z</time>
      </trkpt>
      <trkpt lat="48.52164" lon="-2.67709">
        <ele>23.4</ele>
        <time>2013-09-28T15:25:48Z</time>
      </trkpt>
      <trkpt lat="48.52156" lon="-2.67706">
        <ele>23.4</ele>
        <time>2013-09-28T15:25:55Z</time>
      </trkpt>
      <trkpt lat="48.52148" lon="-2.6771">
        <ele>22.9</ele>
        <time>2013-09-28T15:26:01Z</time>
      </trkpt>
      <trkpt lat="48.52141" lon="-2.67716">
        <ele>21.2</ele>
        <time>2013-09-28T15:26:09Z</time>
      </trkpt>
      <trkpt lat="48.5214" lon="-2.67717">
        <ele>21.1</ele>
        <time>2013-09-28T15:26:10Z</time>
      </trkpt>
      <trkpt lat="48.52124" lon="-2.67724">
        <ele>19.7</ele>
        <time>2013-09-28T15:26:24Z</time>
      </trkpt>
      <trkpt lat="48.52116" lon="-2.67723">
        <ele>19.2</ele>
        <time>2013-09-28T15:26:30Z</time>
      </trkpt>
      <trkpt lat="48.52108" lon="-2.67723">
        <ele>18.9</ele>
        <time>2013-09-28T15:26:46Z</time>
      </trkpt>
      <trkpt lat="48.521" lon="-2.67719">
        <ele>18.8</ele>
        <time>2013-09-28T15:26:53Z</time>
      </trkpt>
      <trkpt lat="48.52093" lon="-2.67712">
        <ele>19</ele>
        <time>2013-09-28T15:27:00Z</time>
      </trkpt>
      <trkpt lat="48.52088" lon="-2.67702">
        <ele>19.4</ele>
        <time>2013-09-28T15:27:09Z</time>
      </trkpt>
      <trkpt lat="48.52087" lon="-2.6769">
        <ele>21.2</ele>
        <time>2013-09-28T15:27:19Z</time>
      </trkpt>
      <trkpt lat="48.52087" lon="-2.67688">
        <ele>21.1</ele>
        <time>2013-09-28T15:27:20Z</time>
      </trkpt>
      <trkpt lat="48.5208" lon="-2.67668">
        <ele>24.4</ele>
        <time>2013-09-28T15:27:44Z</time>
      </trkpt>
      <trkpt lat="48.52073" lon="-2.67661">
        <ele>26.2</ele>
        <time>2013-09-28T15:27:53Z</time>
      </trkpt>
      <trkpt lat="48.52064" lon="-2.67658">
        <ele>27.2</ele>
        <time>2013-09-28T15:28:02Z</time>
      </trkpt>
      <trkpt lat="48.52056" lon="-2.67655">
        <ele>27.8</ele>
        <time>2013-09-28T15:28:11Z</time>
      </trkpt>
      <trkpt lat="48.52048" lon="-2.67654">
        <ele>26.9</ele>
        <time>2013-09-28T15:28:19Z</time>
      </trkpt>
      <trkpt lat="48.5204" lon="-2.67652">
        <ele>25.8</ele>
        <time>2013-09-28T15:28:27Z</time>
      </trkpt>
      <trkpt lat="48.52038" lon="-2.67652">
        <ele>25.6</ele>
        <time>2013-09-28T15:28:28Z</time>
      </trkpt>
      <trkpt lat="48.52023" lon="-2.6765">
        <ele>23.5</ele>
        <time>2013-09-28T15:28:41Z</time>
      </trkpt>
      <trkpt lat="48.52015" lon="-2.67648">
        <ele>21.9</ele>
        <time>2013-09-28T15:28:51Z</time>
      </trkpt>
      <trkpt lat="48.52007" lon="-2.67646">
        <ele>21.1</ele>
        <time>2013-09-28T15:29:00Z</time>
      </trkpt>
      <trkpt lat="48.51999" lon="-2.67644">
        <ele>21</ele>
        <time>2013-09-28T15:29:08Z</time>
      </trkpt>
      <trkpt lat="48.51991" lon="-2.67643">
        <ele>20.9</ele>
        <time>2013-09-28T15:29:15Z</time>
      </trkpt>
      <trkpt lat="48.51982" lon="-2.67644">
        <ele>21.5</ele>
        <time>2013-09-28T15:29:21Z</time>
      </trkpt>
      <trkpt lat="48.51974" lon="-2.6764">
        <ele>22</ele>
        <time>2013-09-28T15:29:30Z</time>
      </trkpt>
      <trkpt lat="48.51973" lon="-2.6764">
        <ele>21.9</ele>
        <time>2013-09-28T15:29:31Z</time>
      </trkpt>
      <trkpt lat="48.51957" lon="-2.67643">
        <ele>21.9</ele>
        <time>2013-09-28T15:29:46Z</time>
      </trkpt>
      <trkpt lat="48.51949" lon="-2.67648">
        <ele>20.7</ele>
        <time>2013-09-28T15:29:55Z</time>
      </trkpt>
      <trkpt lat="48.51941" lon="-2.67648">
        <ele>20.4</ele>
        <time>2013-09-28T15:30:02Z</time>
      </trkpt>
      <trkpt lat="48.51932" lon="-2.67646">
        <ele>18.4</ele>
        <time>2013-09-28T15:30:10Z</time>
      </trkpt>
      <trkpt lat="48.51925" lon="-2.67645">
        <ele>13.8</ele>
        <time>2013-09-28T15:30:18Z</time>
      </trkpt>
      <trkpt lat="48.51917" lon="-2.6764">
        <ele>16.6</ele>
        <time>2013-09-28T15:30:24Z</time>
      </trkpt>
      <trkpt lat="48.5191" lon="-2.67632">
        <ele>14.8</ele>
        <time>2013-09-28T15:30:32Z</time>
      </trkpt>
      <trkpt lat="48.5191" lon="-2.67632">
        <ele>15.3</ele>
        <time>2013-09-28T15:30:33Z</time>
      </trkpt>
      <trkpt lat="48.51894" lon="-2.67622">
        <ele>16.8</ele>
        <time>2013-09-28T15:30:52Z</time>
      </trkpt>
      <trkpt lat="48.51887" lon="-2.67616">
        <ele>18.1</ele>
        <time>2013-09-28T15:31:01Z</time>
      </trkpt>
      <trkpt lat="48.51879" lon="-2.6761">
        <ele>19.6</ele>
        <time>2013-09-28T15:31:11Z</time>
      </trkpt>
      <trkpt lat="48.51871" lon="-2.6761">
        <ele>19.4</ele>
        <time>2013-09-28T15:31:19Z</time>
      </trkpt>
      <trkpt lat="48.51862" lon="-2.67611">
        <ele>19.4</ele>
        <time>2013-09-28T15:31:26Z</time>
      </trkpt>
      <trkpt lat="48.51854" lon="-2.67612">
        <ele>19.1</ele>
        <time>2013-09-28T15:31:33Z</time>
      </trkpt>
      <trkpt lat="48.51853" lon="-2.67613">
        <ele>18.9</ele>
        <time>2013-09-28T15:31:34Z</time>
      </trkpt>
      <trkpt lat="48.51837" lon="-2.67616">
        <ele>19.7</ele>
        <time>2013-09-28T15:31:47Z</time>
      </trkpt>
      <trkpt lat="48.51828" lon="-2.67618">
        <ele>20</ele>
        <time>2013-09-28T15:31:54Z</time>
      </trkpt>
      <trkpt lat="48.51821" lon="-2.67622">
        <ele>20</ele>
        <time>2013-09-28T15:32:01Z</time>
      </trkpt>
      <trkpt lat="48.51813" lon="-2.67628">
        <ele>19.7</ele>
        <time>2013-09-28T15:32:08Z</time>
      </trkpt>
      <trkpt lat="48.51807" lon="-2.67636">
        <ele>19.1</ele>
        <time>2013-09-28T15:32:15Z</time>
      </trkpt>
      <trkpt lat="48.518" lon="-2.67644">
        <ele>18.5</ele>
        <time>2013-09-28T15:32:22Z</time>
      </trkpt>
      <trkpt lat="48.51793" lon="-2.67652">
        <ele>17.8</ele>
        <time>2013-09-28T15:32:29Z</time>
      </trkpt>
      <trkpt lat="48.51784" lon="-2.67654">
        <ele>18.1</ele>
        <time>2013-09-28T15:32:37Z</time>
      </trkpt>
      <trkpt lat="48.51783" lon="-2.67654">
        <ele>17.9</ele>
        <time>2013-09-28T15:32:38Z</time>
      </trkpt>
      <trkpt lat="48.51768" lon="-2.67658">
        <ele>18</ele>
        <time>2013-09-28T15:32:55Z</time>
      </trkpt>
      <trkpt lat="48.51759" lon="-2.67661">
        <ele>16.3</ele>
        <time>2013-09-28T15:33:04Z</time>
      </trkpt>
      <trkpt lat="48.51752" lon="-2.67657">
        <ele>16.6</ele>
        <time>2013-09-28T15:33:10Z</time>
      </trkpt>
      <trkpt lat="48.51745" lon="-2.6765">
        <ele>16.1</ele>
        <time>2013-09-28T15:33:17Z</time>
      </trkpt>
      <trkpt lat="48.51739" lon="-2.6764">
        <ele>15.9</ele>
        <time>2013-09-28T15:33:24Z</time>
      </trkpt>
      <trkpt lat="48.51736" lon="-2.67629">
        <ele>15.8</ele>
        <time>2013-09-28T15:33:31Z</time>
      </trkpt>
      <trkpt lat="48.51731" lon="-2.67619">
        <ele>15.4</ele>
        <time>2013-09-28T15:33:38Z</time>
      </trkpt>
      <trkpt lat="48.5173" lon="-2.67618">
        <ele>15.3</ele>
        <time>2013-09-28T15:33:39Z</time>
      </trkpt>
      <trkpt lat="48.51719" lon="-2.67601">
        <ele>14.8</ele>
        <time>2013-09-28T15:33:51Z</time>
      </trkpt>
      <trkpt lat="48.51712" lon="-2.67593">
        <ele>15</ele>
        <time>2013-09-28T15:33:58Z</time>
      </trkpt>
      <trkpt lat="48.51704" lon="-2.67589">
        <ele>14.8</ele>
        <time>2013-09-28T15:34:06Z</time>
      </trkpt>
      <trkpt lat="48.51696" lon="-2.67585">
        <ele>15.9</ele>
        <time>2013-09-28T15:34:14Z</time>
      </trkpt>
      <trkpt lat="48.51688" lon="-2.67581">
        <ele>17</ele>
        <time>2013-09-28T15:34:23Z</time>
      </trkpt>
      <trkpt lat="48.5168" lon="-2.67579">
        <ele>17.7</ele>
        <time>2013-09-28T15:34:30Z</time>
      </trkpt>
      <trkpt lat="48.51671" lon="-2.6758">
        <ele>17.5</ele>
        <time>2013-09-28T15:34:37Z</time>
      </trkpt>
      <trkpt lat="48.51662" lon="-2.67579">
        <ele>18.3</ele>
        <time>2013-09-28T15:34:45Z</time>
      </trkpt>
      <trkpt lat="48.51661" lon="-2.67579">
        <ele>18.3</ele>
        <time>2013-09-28T15:34:46Z</time>
      </trkpt>
      <trkpt lat="48.51657" lon="-2.67556">
        <ele>21</ele>
        <time>2013-09-28T15:35:14Z</time>
      </trkpt>
      <trkpt lat="48.51656" lon="-2.67543">
        <ele>22.1</ele>
        <time>2013-09-28T15:35:23Z</time>
      </trkpt>
      <trkpt lat="48.51657" lon="-2.6753">
        <ele>23.5</ele>
        <time>2013-09-28T15:35:31Z</time>
      </trkpt>
      <trkpt lat="48.51661" lon="-2.67518">
        <ele>23.2</ele>
        <time>2013-09-28T15:35:39Z</time>
      </trkpt>
      <trkpt lat="48.51667" lon="-2.6751">
        <ele>23.8</ele>
        <time>2013-09-28T15:35:46Z</time>
      </trkpt>
      <trkpt lat="48.51668" lon="-2.67509">
        <ele>24.1</ele>
        <time>2013-09-28T15:35:47Z</time>
      </trkpt>
      <trkpt lat="48.5168" lon="-2.67494">
        <ele>24.4</ele>
        <time>2013-09-28T15:36:00Z</time>
      </trkpt>
      <trkpt lat="48.51686" lon="-2.67486">
        <ele>25</ele>
        <time>2013-09-28T15:36:07Z</time>
      </trkpt>
      <trkpt lat="48.51692" lon="-2.67476">
        <ele>25.3</ele>
        <time>2013-09-28T15:36:16Z</time>
      </trkpt>
      <trkpt lat="48.51698" lon="-2.67468">
        <ele>25.4</ele>
        <time>2013-09-28T15:36:31Z</time>
      </trkpt>
      <trkpt lat="48.51707" lon="-2.67467">
        <ele>25.8</ele>
        <time>2013-09-28T15:36:49Z</time>
      </trkpt>
      <trkpt lat="48.51707" lon="-2.67466">
        <ele>25.8</ele>
        <time>2013-09-28T15:36:50Z</time>
      </trkpt>
      <trkpt lat="48.51711" lon="-2.67469">
        <ele>25.9</ele>
        <time>2013-09-28T15:37:23Z</time>
      </trkpt>
      <trkpt lat="48.51704" lon="-2.67467">
        <ele>26.8</ele>
        <time>2013-09-28T15:38:18Z</time>
      </trkpt>
      <trkpt lat="48.51702" lon="-2.67468">
        <ele>26.8</ele>
        <time>2013-09-28T15:38:19Z</time>
      </trkpt>
      <trkpt lat="48.51689" lon="-2.67481">
        <ele>26.4</ele>
        <time>2013-09-28T15:38:30Z</time>
      </trkpt>
      <trkpt lat="48.51683" lon="-2.6749">
        <ele>25.5</ele>
        <time>2013-09-28T15:38:37Z</time>
      </trkpt>
      <trkpt lat="48.51676" lon="-2.67499">
        <ele>24.9</ele>
        <time>2013-09-28T15:38:44Z</time>
      </trkpt>
      <trkpt lat="48.5167" lon="-2.67506">
        <ele>24.9</ele>
        <time>2013-09-28T15:38:50Z</time>
      </trkpt>
      <trkpt lat="48.51664" lon="-2.67515">
        <ele>25.1</ele>
        <time>2013-09-28T15:38:57Z</time>
      </trkpt>
      <trkpt lat="48.51658" lon="-2.67526">
        <ele>24.4</ele>
        <time>2013-09-28T15:39:04Z</time>
      </trkpt>
      <trkpt lat="48.51656" lon="-2.67538">
        <ele>24.5</ele>
        <time>2013-09-28T15:39:11Z</time>
      </trkpt>
      <trkpt lat="48.51655" lon="-2.67551">
        <ele>24.4</ele>
        <time>2013-09-28T15:39:18Z</time>
      </trkpt>
      <trkpt lat="48.51656" lon="-2.67564">
        <ele>22.7</ele>
        <time>2013-09-28T15:39:26Z</time>
      </trkpt>
      <trkpt lat="48.51656" lon="-2.67565">
        <ele>22.7</ele>
        <time>2013-09-28T15:39:27Z</time>
      </trkpt>
      <trkpt lat="48.51647" lon="-2.67581">
        <ele>19.5</ele>
        <time>2013-09-28T15:39:47Z</time>
      </trkpt>
      <trkpt lat="48.51639" lon="-2.67584">
        <ele>19</ele>
        <time>2013-09-28T15:40:32Z</time>
      </trkpt>
      <trkpt lat="48.51638" lon="-2.67584">
        <ele>19</ele>
        <time>2013-09-28T15:40:33Z</time>
      </trkpt>
      <trkpt lat="48.51622" lon="-2.67589">
        <ele>18.4</ele>
        <time>2013-09-28T15:40:47Z</time>
      </trkpt>
      <trkpt lat="48.51614" lon="-2.67595">
        <ele>17.7</ele>
        <time>2013-09-28T15:40:54Z</time>
      </trkpt>
      <trkpt lat="48.51607" lon="-2.67601">
        <ele>17.2</ele>
        <time>2013-09-28T15:41:00Z</time>
      </trkpt>
      <trkpt lat="48.51599" lon="-2.67597">
        <ele>16.7</ele>
        <time>2013-09-28T15:41:06Z</time>
      </trkpt>
      <trkpt lat="48.51592" lon="-2.67591">
        <ele>16.7</ele>
        <time>2013-09-28T15:41:14Z</time>
      </trkpt>
      <trkpt lat="48.51583" lon="-2.67588">
        <ele>17.8</ele>
        <time>2013-09-28T15:41:23Z</time>
      </trkpt>
      <trkpt lat="48.51575" lon="-2.67585">
        <ele>18.6</ele>
        <time>2013-09-28T15:41:32Z</time>
      </trkpt>
      <trkpt lat="48.51566" lon="-2.67587">
        <ele>18.8</ele>
        <time>2013-09-28T15:41:40Z</time>
      </trkpt>
      <trkpt lat="48.51565" lon="-2.67588">
        <ele>18.7</ele>
        <time>2013-09-28T15:41:41Z</time>
      </trkpt>
      <trkpt lat="48.5155" lon="-2.67593">
        <ele>18.7</ele>
        <time>2013-09-28T15:41:53Z</time>
      </trkpt>
      <trkpt lat="48.51542" lon="-2.67598">
        <ele>19</ele>
        <time>2013-09-28T15:42:00Z</time>
      </trkpt>
      <trkpt lat="48.51535" lon="-2.67605">
        <ele>19.2</ele>
        <time>2013-09-28T15:42:07Z</time>
      </trkpt>
      <trkpt lat="48.5153" lon="-2.67614">
        <ele>18.1</ele>
        <time>2013-09-28T15:42:14Z</time>
      </trkpt>
      <trkpt lat="48.51522" lon="-2.67621">
        <ele>17.3</ele>
        <time>2013-09-28T15:42:21Z</time>
      </trkpt>
      <trkpt lat="48.51514" lon="-2.67623">
        <ele>16.9</ele>
        <time>2013-09-28T15:42:28Z</time>
      </trkpt>
      <trkpt lat="48.51508" lon="-2.67632">
        <ele>16.8</ele>
        <time>2013-09-28T15:42:35Z</time>
      </trkpt>
      <trkpt lat="48.51503" lon="-2.67642">
        <ele>15.3</ele>
        <time>2013-09-28T15:42:42Z</time>
      </trkpt>
      <trkpt lat="48.51502" lon="-2.67643">
        <ele>15.2</ele>
        <time>2013-09-28T15:42:43Z</time>
      </trkpt>
      <trkpt lat="48.51491" lon="-2.67659">
        <ele>15.2</ele>
        <time>2013-09-28T15:42:59Z</time>
      </trkpt>
      <trkpt lat="48.51482" lon="-2.67657">
        <ele>14.8</ele>
        <time>2013-09-28T15:43:06Z</time>
      </trkpt>
      <trkpt lat="48.51476" lon="-2.67648">
        <ele>14.5</ele>
        <time>2013-09-28T15:43:12Z</time>
      </trkpt>
      <trkpt lat="48.51472" lon="-2.67638">
        <ele>14.4</ele>
        <time>2013-09-28T15:43:19Z</time>
      </trkpt>
      <trkpt lat="48.51468" lon="-2.67626">
        <ele>14</ele>
        <time>2013-09-28T15:43:27Z</time>
      </trkpt>
      <trkpt lat="48.51462" lon="-2.67617">
        <ele>13.9</ele>
        <time>2013-09-28T15:43:34Z</time>
      </trkpt>
      <trkpt lat="48.51455" lon="-2.67612">
        <ele>14.1</ele>
        <time>2013-09-28T15:43:40Z</time>
      </trkpt>
      <trkpt lat="48.51446" lon="-2.6761">
        <ele>12.6</ele>
        <time>2013-09-28T15:43:47Z</time>
      </trkpt>
      <trkpt lat="48.51445" lon="-2.67609">
        <ele>12.3</ele>
        <time>2013-09-28T15:43:48Z</time>
      </trkpt>
      <trkpt lat="48.5143" lon="-2.67603">
        <ele>12.3</ele>
        <time>2013-09-28T15:43:59Z</time>
      </trkpt>
      <trkpt lat="48.51424" lon="-2.67595">
        <ele>11.3</ele>
        <time>2013-09-28T15:44:05Z</time>
      </trkpt>
      <trkpt lat="48.51418" lon="-2.67587">
        <ele>10.6</ele>
        <time>2013-09-28T15:44:11Z</time>
      </trkpt>
      <trkpt lat="48.51413" lon="-2.6758">
        <ele>10.8</ele>
        <time>2013-09-28T15:44:17Z</time>
      </trkpt>
      <trkpt lat="48.51406" lon="-2.67572">
        <ele>11.1</ele>
        <time>2013-09-28T15:44:24Z</time>
      </trkpt>
      <trkpt lat="48.51399" lon="-2.67567">
        <ele>10.3</ele>
        <time>2013-09-28T15:44:31Z</time>
      </trkpt>
      <trkpt lat="48.51391" lon="-2.6756">
        <ele>11.2</ele>
        <time>2013-09-28T15:44:38Z</time>
      </trkpt>
      <trkpt lat="48.51387" lon="-2.67551">
        <ele>11.4</ele>
        <time>2013-09-28T15:44:44Z</time>
      </trkpt>
      <trkpt lat="48.51383" lon="-2.67538">
        <ele>11.1</ele>
        <time>2013-09-28T15:44:52Z</time>
      </trkpt>
      <trkpt lat="48.51383" lon="-2.67537">
        <ele>11</ele>
        <time>2013-09-28T15:44:53Z</time>
      </trkpt>
      <trkpt lat="48.51368" lon="-2.67534">
        <ele>9.7</ele>
        <time>2013-09-28T15:45:17Z</time>
      </trkpt>
      <trkpt lat="48.51361" lon="-2.67528">
        <ele>17.5</ele>
        <time>2013-09-28T15:45:24Z</time>
      </trkpt>
      <trkpt lat="48.51354" lon="-2.67521">
        <ele>15.4</ele>
        <time>2013-09-28T15:45:31Z</time>
      </trkpt>
      <trkpt lat="48.51346" lon="-2.67517">
        <ele>14</ele>
        <time>2013-09-28T15:45:38Z</time>
      </trkpt>
      <trkpt lat="48.51338" lon="-2.67517">
        <ele>14.5</ele>
        <time>2013-09-28T15:45:45Z</time>
      </trkpt>
      <trkpt lat="48.5133" lon="-2.6752">
        <ele>14</ele>
        <time>2013-09-28T15:45:52Z</time>
      </trkpt>
      <trkpt lat="48.51322" lon="-2.67525">
        <ele>13.9</ele>
        <time>2013-09-28T15:45:59Z</time>
      </trkpt>
      <trkpt lat="48.51321" lon="-2.67526">
        <ele>13.7</ele>
        <time>2013-09-28T15:46:00Z</time>
      </trkpt>
      <trkpt lat="48.5131" lon="-2.6754">
        <ele>13.4</ele>
        <time>2013-09-28T15:46:11Z</time>
      </trkpt>
      <trkpt lat="48.51304" lon="-2.67548">
        <ele>13.3</ele>
        <time>2013-09-28T15:46:17Z</time>
      </trkpt>
      <trkpt lat="48.51297" lon="-2.67554">
        <ele>13.1</ele>
        <time>2013-09-28T15:46:23Z</time>
      </trkpt>
      <trkpt lat="48.51289" lon="-2.6756">
        <ele>12.9</ele>
        <time>2013-09-28T15:46:30Z</time>
      </trkpt>
      <trkpt lat="48.5128" lon="-2.67561">
        <ele>13.7</ele>
        <time>2013-09-28T15:46:37Z</time>
      </trkpt>
      <trkpt lat="48.51273" lon="-2.67566">
        <ele>12.8</ele>
        <time>2013-09-28T15:46:44Z</time>
      </trkpt>
      <trkpt lat="48.51266" lon="-2.67574">
        <ele>12.3</ele>
        <time>2013-09-28T15:46:50Z</time>
      </trkpt>
      <trkpt lat="48.51261" lon="-2.67583">
        <ele>12.3</ele>
        <time>2013-09-28T15:46:56Z</time>
      </trkpt>
      <trkpt lat="48.51255" lon="-2.67592">
        <ele>11.8</ele>
        <time>2013-09-28T15:47:02Z</time>
      </trkpt>
      <trkpt lat="48.51254" lon="-2.67594">
        <ele>11.8</ele>
        <time>2013-09-28T15:47:03Z</time>
      </trkpt>
      <trkpt lat="48.51245" lon="-2.67611">
        <ele>11.7</ele>
        <time>2013-09-28T15:47:14Z</time>
      </trkpt>
      <trkpt lat="48.51241" lon="-2.67623">
        <ele>11.5</ele>
        <time>2013-09-28T15:47:21Z</time>
      </trkpt>
      <trkpt lat="48.51237" lon="-2.67633">
        <ele>10.8</ele>
        <time>2013-09-28T15:47:27Z</time>
      </trkpt>
      <trkpt lat="48.51231" lon="-2.67641">
        <ele>10.6</ele>
        <time>2013-09-28T15:47:33Z</time>
      </trkpt>
      <trkpt lat="48.51224" lon="-2.67646">
        <ele>11.3</ele>
        <time>2013-09-28T15:47:39Z</time>
      </trkpt>
      <trkpt lat="48.51216" lon="-2.67649">
        <ele>10.9</ele>
        <time>2013-09-28T15:47:45Z</time>
      </trkpt>
      <trkpt lat="48.51208" lon="-2.67653">
        <ele>10.3</ele>
        <time>2013-09-28T15:47:52Z</time>
      </trkpt>
      <trkpt lat="48.512" lon="-2.67659">
        <ele>10.8</ele>
        <time>2013-09-28T15:47:59Z</time>
      </trkpt>
      <trkpt lat="48.51192" lon="-2.67654">
        <ele>10.4</ele>
        <time>2013-09-28T15:48:05Z</time>
      </trkpt>
      <trkpt lat="48.51191" lon="-2.67653">
        <ele>10.5</ele>
        <time>2013-09-28T15:48:06Z</time>
      </trkpt>
      <trkpt lat="48.51177" lon="-2.67649">
        <ele>10.4</ele>
        <time>2013-09-28T15:48:17Z</time>
      </trkpt>
      <trkpt lat="48.51168" lon="-2.67653">
        <ele>11.7</ele>
        <time>2013-09-28T15:48:24Z</time>
      </trkpt>
      <trkpt lat="48.51161" lon="-2.67653">
        <ele>11.3</ele>
        <time>2013-09-28T15:48:30Z</time>
      </trkpt>
      <trkpt lat="48.51152" lon="-2.67651">
        <ele>11.1</ele>
        <time>2013-09-28T15:48:37Z</time>
      </trkpt>
      <trkpt lat="48.51144" lon="-2.67648">
        <ele>10.8</ele>
        <time>2013-09-28T15:48:44Z</time>
      </trkpt>
      <trkpt lat="48.51137" lon="-2.67642">
        <ele>11.1</ele>
        <time>2013-09-28T15:48:51Z</time>
      </trkpt>
      <trkpt lat="48.5113" lon="-2.67635">
        <ele>11.5</ele>
        <time>2013-09-28T15:48:58Z</time>
      </trkpt>
      <trkpt lat="48.51124" lon="-2.67625">
        <ele>11.9</ele>
        <time>2013-09-28T15:49:05Z</time>
      </trkpt>
      <trkpt lat="48.51119" lon="-2.67616">
        <ele>11.4</ele>
        <time>2013-09-28T15:49:12Z</time>
      </trkpt>
      <trkpt lat="48.51118" lon="-2.67614">
        <ele>11.4</ele>
        <time>2013-09-28T15:49:13Z</time>
      </trkpt>
      <trkpt lat="48.51107" lon="-2.67597">
        <ele>12.2</ele>
        <time>2013-09-28T15:49:26Z</time>
      </trkpt>
      <trkpt lat="48.51101" lon="-2.67587">
        <ele>12.2</ele>
        <time>2013-09-28T15:49:57Z</time>
      </trkpt>
      <trkpt lat="48.51099" lon="-2.67575">
        <ele>11.8</ele>
        <time>2013-09-28T15:50:20Z</time>
      </trkpt>
      <trkpt lat="48.51098" lon="-2.67574">
        <ele>12</ele>
        <time>2013-09-28T15:50:21Z</time>
      </trkpt>
      <trkpt lat="48.51083" lon="-2.67562">
        <ele>13.6</ele>
        <time>2013-09-28T15:50:41Z</time>
      </trkpt>
      <trkpt lat="48.51077" lon="-2.67553">
        <ele>14</ele>
        <time>2013-09-28T15:50:50Z</time>
      </trkpt>
      <trkpt lat="48.5107" lon="-2.67545">
        <ele>15.3</ele>
        <time>2013-09-28T15:50:58Z</time>
      </trkpt>
      <trkpt lat="48.51063" lon="-2.67539">
        <ele>15.6</ele>
        <time>2013-09-28T15:51:05Z</time>
      </trkpt>
      <trkpt lat="48.51055" lon="-2.67536">
        <ele>16.5</ele>
        <time>2013-09-28T15:51:13Z</time>
      </trkpt>
      <trkpt lat="48.51047" lon="-2.67532">
        <ele>16.6</ele>
        <time>2013-09-28T15:51:21Z</time>
      </trkpt>
      <trkpt lat="48.51046" lon="-2.67532">
        <ele>16.6</ele>
        <time>2013-09-28T15:51:22Z</time>
      </trkpt>
      <trkpt lat="48.51032" lon="-2.67524">
        <ele>17</ele>
        <time>2013-09-28T15:51:35Z</time>
      </trkpt>
      <trkpt lat="48.51023" lon="-2.67519">
        <ele>18.1</ele>
        <time>2013-09-28T15:51:43Z</time>
      </trkpt>
      <trkpt lat="48.51015" lon="-2.67516">
        <ele>19.2</ele>
        <time>2013-09-28T15:51:51Z</time>
      </trkpt>
      <trkpt lat="48.51006" lon="-2.67515">
        <ele>19.6</ele>
        <time>2013-09-28T15:51:58Z</time>
      </trkpt>
      <trkpt lat="48.50998" lon="-2.67514">
        <ele>19.4</ele>
        <time>2013-09-28T15:52:05Z</time>
      </trkpt>
      <trkpt lat="48.5099" lon="-2.67515">
        <ele>19</ele>
        <time>2013-09-28T15:52:12Z</time>
      </trkpt>
      <trkpt lat="48.50981" lon="-2.67514">
        <ele>19.8</ele>
        <time>2013-09-28T15:52:19Z</time>
      </trkpt>
      <trkpt lat="48.50973" lon="-2.67508">
        <ele>20.9</ele>
        <time>2013-09-28T15:52:27Z</time>
      </trkpt>
      <trkpt lat="48.50972" lon="-2.67507">
        <ele>21.1</ele>
        <time>2013-09-28T15:52:28Z</time>
      </trkpt>
      <trkpt lat="48.50957" lon="-2.67509">
        <ele>22</ele>
        <time>2013-09-28T15:52:44Z</time>
      </trkpt>
      <trkpt lat="48.5095" lon="-2.67515">
        <ele>22.4</ele>
        <time>2013-09-28T15:52:52Z</time>
      </trkpt>
      <trkpt lat="48.50942" lon="-2.67519">
        <ele>22.5</ele>
        <time>2013-09-28T15:53:01Z</time>
      </trkpt>
      <trkpt lat="48.50933" lon="-2.67519">
        <ele>22.9</ele>
        <time>2013-09-28T15:53:11Z</time>
      </trkpt>
      <trkpt lat="48.50925" lon="-2.67516">
        <ele>22.9</ele>
        <time>2013-09-28T15:53:18Z</time>
      </trkpt>
      <trkpt lat="48.50916" lon="-2.67515">
        <ele>24.3</ele>
        <time>2013-09-28T15:53:25Z</time>
      </trkpt>
      <trkpt lat="48.50908" lon="-2.67515">
        <ele>24.7</ele>
        <time>2013-09-28T15:53:33Z</time>
      </trkpt>
      <trkpt lat="48.50907" lon="-2.67514">
        <ele>24.8</ele>
        <time>2013-09-28T15:53:34Z</time>
      </trkpt>
      <trkpt lat="48.50892" lon="-2.6752">
        <ele>25.1</ele>
        <time>2013-09-28T15:53:49Z</time>
      </trkpt>
      <trkpt lat="48.50884" lon="-2.67524">
        <ele>24.3</ele>
        <time>2013-09-28T15:53:57Z</time>
      </trkpt>
      <trkpt lat="48.50877" lon="-2.67533">
        <ele>24</ele>
        <time>2013-09-28T15:54:06Z</time>
      </trkpt>
      <trkpt lat="48.5087" lon="-2.67537">
        <ele>23.4</ele>
        <time>2013-09-28T15:54:14Z</time>
      </trkpt>
      <trkpt lat="48.50863" lon="-2.67543">
        <ele>22.7</ele>
        <time>2013-09-28T15:54:21Z</time>
      </trkpt>
      <trkpt lat="48.50855" lon="-2.6755">
        <ele>23.5</ele>
        <time>2013-09-28T15:54:29Z</time>
      </trkpt>
      <trkpt lat="48.50849" lon="-2.67558">
        <ele>23.3</ele>
        <time>2013-09-28T15:54:37Z</time>
      </trkpt>
      <trkpt lat="48.50848" lon="-2.6756">
        <ele>23.3</ele>
        <time>2013-09-28T15:54:38Z</time>
      </trkpt>
      <trkpt lat="48.50838" lon="-2.67574">
        <ele>23.7</ele>
        <time>2013-09-28T15:54:48Z</time>
      </trkpt>
      <trkpt lat="48.50831" lon="-2.67583">
        <ele>23.3</ele>
        <time>2013-09-28T15:54:55Z</time>
      </trkpt>
      <trkpt lat="48.50824" lon="-2.67589">
        <ele>24</ele>
        <time>2013-09-28T15:55:02Z</time>
      </trkpt>
      <trkpt lat="48.50816" lon="-2.67592">
        <ele>23.7</ele>
        <time>2013-09-28T15:55:09Z</time>
      </trkpt>
      <trkpt lat="48.50808" lon="-2.67597">
        <ele>23.8</ele>
        <time>2013-09-28T15:55:16Z</time>
      </trkpt>
      <trkpt lat="48.50801" lon="-2.67604">
        <ele>23.8</ele>
        <time>2013-09-28T15:55:24Z</time>
      </trkpt>
      <trkpt lat="48.50793" lon="-2.6761">
        <ele>23.7</ele>
        <time>2013-09-28T15:55:31Z</time>
      </trkpt>
      <trkpt lat="48.50786" lon="-2.67617">
        <ele>23.5</ele>
        <time>2013-09-28T15:55:40Z</time>
      </trkpt>
      <trkpt lat="48.50785" lon="-2.67618">
        <ele>23.4</ele>
        <time>2013-09-28T15:55:41Z</time>
      </trkpt>
      <trkpt lat="48.50775" lon="-2.67636">
        <ele>23.9</ele>
        <time>2013-09-28T15:55:57Z</time>
      </trkpt>
      <trkpt lat="48.50768" lon="-2.67644">
        <ele>24.4</ele>
        <time>2013-09-28T15:56:03Z</time>
      </trkpt>
      <trkpt lat="48.5076" lon="-2.6765">
        <ele>24.6</ele>
        <time>2013-09-28T15:56:11Z</time>
      </trkpt>
      <trkpt lat="48.50756" lon="-2.67661">
        <ele>24</ele>
        <time>2013-09-28T15:56:20Z</time>
      </trkpt>
      <trkpt lat="48.50751" lon="-2.67671">
        <ele>24.7</ele>
        <time>2013-09-28T15:56:27Z</time>
      </trkpt>
      <trkpt lat="48.50746" lon="-2.6768">
        <ele>25</ele>
        <time>2013-09-28T15:56:32Z</time>
      </trkpt>
      <trkpt lat="48.50739" lon="-2.67687">
        <ele>25.1</ele>
        <time>2013-09-28T15:56:37Z</time>
      </trkpt>
      <trkpt lat="48.50732" lon="-2.67694">
        <ele>24.7</ele>
        <time>2013-09-28T15:56:43Z</time>
      </trkpt>
      <trkpt lat="48.50731" lon="-2.67695">
        <ele>24.8</ele>
        <time>2013-09-28T15:56:44Z</time>
      </trkpt>
      <trkpt lat="48.5072" lon="-2.67714">
        <ele>24.4</ele>
        <time>2013-09-28T15:57:00Z</time>
      </trkpt>
      <trkpt lat="48.50714" lon="-2.67724">
        <ele>25</ele>
        <time>2013-09-28T15:57:08Z</time>
      </trkpt>
      <trkpt lat="48.50708" lon="-2.67733">
        <ele>25.3</ele>
        <time>2013-09-28T15:57:17Z</time>
      </trkpt>
      <trkpt lat="48.50702" lon="-2.67743">
        <ele>25.8</ele>
        <time>2013-09-28T15:57:26Z</time>
      </trkpt>
      <trkpt lat="48.50695" lon="-2.6775">
        <ele>25.7</ele>
        <time>2013-09-28T15:57:34Z</time>
      </trkpt>
      <trkpt lat="48.50686" lon="-2.67749">
        <ele>25.5</ele>
        <time>2013-09-28T15:57:44Z</time>
      </trkpt>
      <trkpt lat="48.50685" lon="-2.67749">
        <ele>25.6</ele>
        <time>2013-09-28T15:57:45Z</time>
      </trkpt>
      <trkpt lat="48.5067" lon="-2.6775">
        <ele>26.3</ele>
        <time>2013-09-28T15:57:58Z</time>
      </trkpt>
      <trkpt lat="48.50661" lon="-2.67754">
        <ele>27.4</ele>
        <time>2013-09-28T15:58:06Z</time>
      </trkpt>
      <trkpt lat="48.50654" lon="-2.67761">
        <ele>27.7</ele>
        <time>2013-09-28T15:58:15Z</time>
      </trkpt>
      <trkpt lat="48.5065" lon="-2.67773">
        <ele>27.3</ele>
        <time>2013-09-28T15:58:28Z</time>
      </trkpt>
      <trkpt lat="48.5065" lon="-2.67786">
        <ele>24.3</ele>
        <time>2013-09-28T15:58:46Z</time>
      </trkpt>
      <trkpt lat="48.5065" lon="-2.67787">
        <ele>24.7</ele>
        <time>2013-09-28T15:58:47Z</time>
      </trkpt>
      <trkpt lat="48.50639" lon="-2.67805">
        <ele>22.2</ele>
        <time>2013-09-28T15:59:00Z</time>
      </trkpt>
      <trkpt lat="48.50632" lon="-2.67812">
        <ele>22.4</ele>
        <time>2013-09-28T15:59:09Z</time>
      </trkpt>
      <trkpt lat="48.50623" lon="-2.67813">
        <ele>25.1</ele>
        <time>2013-09-28T15:59:25Z</time>
      </trkpt>
      <trkpt lat="48.50615" lon="-2.67814">
        <ele>26.3</ele>
        <time>2013-09-28T15:59:36Z</time>
      </trkpt>
      <trkpt lat="48.50607" lon="-2.67819">
        <ele>27.9</ele>
        <time>2013-09-28T15:59:47Z</time>
      </trkpt>
      <trkpt lat="48.50606" lon="-2.6782">
        <ele>28.2</ele>
        <time>2013-09-28T15:59:48Z</time>
      </trkpt>
      <trkpt lat="48.50591" lon="-2.67829">
        <ele>27.7</ele>
        <time>2013-09-28T16:00:03Z</time>
      </trkpt>
      <trkpt lat="48.50583" lon="-2.67835">
        <ele>27.4</ele>
        <time>2013-09-28T16:00:09Z</time>
      </trkpt>
      <trkpt lat="48.50577" lon="-2.67844">
        <ele>28.5</ele>
        <time>2013-09-28T16:00:17Z</time>
      </trkpt>
      <trkpt lat="48.50571" lon="-2.67852">
        <ele>28.5</ele>
        <time>2013-09-28T16:00:23Z</time>
      </trkpt>
      <trkpt lat="48.50565" lon="-2.67862">
        <ele>27.8</ele>
        <time>2013-09-28T16:00:30Z</time>
      </trkpt>
      <trkpt lat="48.5056" lon="-2.67871">
        <ele>26.7</ele>
        <time>2013-09-28T16:00:38Z</time>
      </trkpt>
      <trkpt lat="48.50553" lon="-2.67878">
        <ele>26.5</ele>
        <time>2013-09-28T16:00:45Z</time>
      </trkpt>
      <trkpt lat="48.50544" lon="-2.6788">
        <ele>24.7</ele>
        <time>2013-09-28T16:00:56Z</time>
      </trkpt>
      <trkpt lat="48.50544" lon="-2.67881">
        <ele>24.5</ele>
        <time>2013-09-28T16:00:57Z</time>
      </trkpt>
      <trkpt lat="48.50527" lon="-2.67878">
        <ele>21.9</ele>
        <time>2013-09-28T16:01:39Z</time>
      </trkpt>
      <trkpt lat="48.50519" lon="-2.67876">
        <ele>21</ele>
        <time>2013-09-28T16:01:49Z</time>
      </trkpt>
      <trkpt lat="48.50511" lon="-2.67873">
        <ele>20.8</ele>
        <time>2013-09-28T16:01:58Z</time>
      </trkpt>
      <trkpt lat="48.50511" lon="-2.67873">
        <ele>20.8</ele>
        <time>2013-09-28T16:01:59Z</time>
      </trkpt>
      <trkpt lat="48.50496" lon="-2.67867">
        <ele>19.9</ele>
        <time>2013-09-28T16:02:15Z</time>
      </trkpt>
      <trkpt lat="48.50487" lon="-2.67863">
        <ele>20.2</ele>
        <time>2013-09-28T16:02:22Z</time>
      </trkpt>
      <trkpt lat="48.5048" lon="-2.6786">
        <ele>20.7</ele>
        <time>2013-09-28T16:02:28Z</time>
      </trkpt>
      <trkpt lat="48.50471" lon="-2.67858">
        <ele>20.6</ele>
        <time>2013-09-28T16:02:36Z</time>
      </trkpt>
      <trkpt lat="48.50463" lon="-2.67856">
        <ele>20.6</ele>
        <time>2013-09-28T16:02:44Z</time>
      </trkpt>
      <trkpt lat="48.50456" lon="-2.67851">
        <ele>20.6</ele>
        <time>2013-09-28T16:02:53Z</time>
      </trkpt>
      <trkpt lat="48.50448" lon="-2.67852">
        <ele>20.7</ele>
        <time>2013-09-28T16:03:01Z</time>
      </trkpt>
      <trkpt lat="48.50447" lon="-2.67852">
        <ele>20.7</ele>
        <time>2013-09-28T16:03:02Z</time>
      </trkpt>
      <trkpt lat="48.50432" lon="-2.67862">
        <ele>18.7</ele>
        <time>2013-09-28T16:03:14Z</time>
      </trkpt>
      <trkpt lat="48.50424" lon="-2.67866">
        <ele>18.6</ele>
        <time>2013-09-28T16:03:19Z</time>
      </trkpt>
      <trkpt lat="48.50416" lon="-2.67869">
        <ele>17.7</ele>
        <time>2013-09-28T16:03:26Z</time>
      </trkpt>
      <trkpt lat="48.50408" lon="-2.67871">
        <ele>18.4</ele>
        <time>2013-09-28T16:03:33Z</time>
      </trkpt>
      <trkpt lat="48.504" lon="-2.67876">
        <ele>17.6</ele>
        <time>2013-09-28T16:03:42Z</time>
      </trkpt>
      <trkpt lat="48.50393" lon="-2.67881">
        <ele>17.1</ele>
        <time>2013-09-28T16:03:50Z</time>
      </trkpt>
      <trkpt lat="48.50384" lon="-2.67883">
        <ele>16</ele>
        <time>2013-09-28T16:03:57Z</time>
      </trkpt>
      <trkpt lat="48.50376" lon="-2.67884">
        <ele>16</ele>
        <time>2013-09-28T16:04:04Z</time>
      </trkpt>
      <trkpt lat="48.50375" lon="-2.67885">
        <ele>15.9</ele>
        <time>2013-09-28T16:04:05Z</time>
      </trkpt>
      <trkpt lat="48.50362" lon="-2.67895">
        <ele>15.2</ele>
        <time>2013-09-28T16:04:15Z</time>
      </trkpt>
      <trkpt lat="48.50354" lon="-2.67897">
        <ele>14.7</ele>
        <time>2013-09-28T16:04:23Z</time>
      </trkpt>
      <trkpt lat="48.50345" lon="-2.67895">
        <ele>14.9</ele>
        <time>2013-09-28T16:04:32Z</time>
      </trkpt>
      <trkpt lat="48.50337" lon="-2.67892">
        <ele>14.3</ele>
        <time>2013-09-28T16:04:39Z</time>
      </trkpt>
      <trkpt lat="48.50329" lon="-2.67893">
        <ele>13.6</ele>
        <time>2013-09-28T16:04:47Z</time>
      </trkpt>
      <trkpt lat="48.50321" lon="-2.67898">
        <ele>13.2</ele>
        <time>2013-09-28T16:04:53Z</time>
      </trkpt>
      <trkpt lat="48.50313" lon="-2.67903">
        <ele>13.2</ele>
        <time>2013-09-28T16:04:59Z</time>
      </trkpt>
      <trkpt lat="48.50306" lon="-2.6791">
        <ele>12.9</ele>
        <time>2013-09-28T16:05:06Z</time>
      </trkpt>
      <trkpt lat="48.50306" lon="-2.67912">
        <ele>13</ele>
        <time>2013-09-28T16:05:07Z</time>
      </trkpt>
      <trkpt lat="48.50301" lon="-2.67934">
        <ele>10.6</ele>
        <time>2013-09-28T16:05:24Z</time>
      </trkpt>
      <trkpt lat="48.50294" lon="-2.67942">
        <ele>10.9</ele>
        <time>2013-09-28T16:05:32Z</time>
      </trkpt>
      <trkpt lat="48.50287" lon="-2.6795">
        <ele>10.8</ele>
        <time>2013-09-28T16:05:40Z</time>
      </trkpt>
      <trkpt lat="48.50281" lon="-2.67957">
        <ele>10.7</ele>
        <time>2013-09-28T16:05:47Z</time>
      </trkpt>
      <trkpt lat="48.50274" lon="-2.67965">
        <ele>10.9</ele>
        <time>2013-09-28T16:05:55Z</time>
      </trkpt>
      <trkpt lat="48.50267" lon="-2.67973">
        <ele>10.8</ele>
        <time>2013-09-28T16:06:02Z</time>
      </trkpt>
      <trkpt lat="48.50262" lon="-2.67982">
        <ele>10.5</ele>
        <time>2013-09-28T16:06:08Z</time>
      </trkpt>
      <trkpt lat="48.50261" lon="-2.67984">
        <ele>10.5</ele>
        <time>2013-09-28T16:06:09Z</time>
      </trkpt>
      <trkpt lat="48.50254" lon="-2.68005">
        <ele>11.1</ele>
        <time>2013-09-28T16:06:45Z</time>
      </trkpt>
      <trkpt lat="48.50247" lon="-2.68012">
        <ele>11.7</ele>
        <time>2013-09-28T16:08:55Z</time>
      </trkpt>
      <trkpt lat="48.50246" lon="-2.68013">
        <ele>11.7</ele>
        <time>2013-09-28T16:08:56Z</time>
      </trkpt>
      <trkpt lat="48.50236" lon="-2.68031">
        <ele>10.8</ele>
        <time>2013-09-28T16:09:12Z</time>
      </trkpt>
      <trkpt lat="48.5023" lon="-2.68041">
        <ele>11.6</ele>
        <time>2013-09-28T16:09:19Z</time>
      </trkpt>
      <trkpt lat="48.50225" lon="-2.68051">
        <ele>12.1</ele>
        <time>2013-09-28T16:09:27Z</time>
      </trkpt>
      <trkpt lat="48.5022" lon="-2.68061">
        <ele>11.7</ele>
        <time>2013-09-28T16:09:34Z</time>
      </trkpt>
      <trkpt lat="48.50215" lon="-2.68071">
        <ele>12.6</ele>
        <time>2013-09-28T16:09:41Z</time>
      </trkpt>
      <trkpt lat="48.5021" lon="-2.68081">
        <ele>12.7</ele>
        <time>2013-09-28T16:09:48Z</time>
      </trkpt>
      <trkpt lat="48.50205" lon="-2.68091">
        <ele>12.3</ele>
        <time>2013-09-28T16:09:55Z</time>
      </trkpt>
      <trkpt lat="48.502" lon="-2.681">
        <ele>12.5</ele>
        <time>2013-09-28T16:10:02Z</time>
      </trkpt>
      <trkpt lat="48.50199" lon="-2.68102">
        <ele>12.7</ele>
        <time>2013-09-28T16:10:03Z</time>
      </trkpt>
      <trkpt lat="48.5019" lon="-2.6812">
        <ele>12.2</ele>
        <time>2013-09-28T16:10:16Z</time>
      </trkpt>
      <trkpt lat="48.50184" lon="-2.68129">
        <ele>12.9</ele>
        <time>2013-09-28T16:10:23Z</time>
      </trkpt>
      <trkpt lat="48.50179" lon="-2.68139">
        <ele>12.8</ele>
        <time>2013-09-28T16:10:30Z</time>
      </trkpt>
      <trkpt lat="48.50173" lon="-2.68149">
        <ele>12.1</ele>
        <time>2013-09-28T16:10:37Z</time>
      </trkpt>
      <trkpt lat="48.50167" lon="-2.68159">
        <ele>12.7</ele>
        <time>2013-09-28T16:10:44Z</time>
      </trkpt>
      <trkpt lat="48.50162" lon="-2.68167">
        <ele>12</ele>
        <time>2013-09-28T16:10:50Z</time>
      </trkpt>
      <trkpt lat="48.50156" lon="-2.68176">
        <ele>12.6</ele>
        <time>2013-09-28T16:10:56Z</time>
      </trkpt>
      <trkpt lat="48.50151" lon="-2.68184">
        <ele>12.8</ele>
        <time>2013-09-28T16:11:02Z</time>
      </trkpt>
      <trkpt lat="48.50145" lon="-2.68192">
        <ele>12.2</ele>
        <time>2013-09-28T16:11:08Z</time>
      </trkpt>
      <trkpt lat="48.50144" lon="-2.68193">
        <ele>12</ele>
        <time>2013-09-28T16:11:09Z</time>
      </trkpt>
      <trkpt lat="48.50133" lon="-2.68208">
        <ele>12.3</ele>
        <time>2013-09-28T16:11:20Z</time>
      </trkpt>
      <trkpt lat="48.50126" lon="-2.68217">
        <ele>12.4</ele>
        <time>2013-09-28T16:11:27Z</time>
      </trkpt>
      <trkpt lat="48.50119" lon="-2.68226">
        <ele>12.2</ele>
        <time>2013-09-28T16:11:34Z</time>
      </trkpt>
      <trkpt lat="48.50113" lon="-2.68233">
        <ele>12.1</ele>
        <time>2013-09-28T16:11:40Z</time>
      </trkpt>
      <trkpt lat="48.50106" lon="-2.68241">
        <ele>12.3</ele>
        <time>2013-09-28T16:11:47Z</time>
      </trkpt>
      <trkpt lat="48.50098" lon="-2.68248">
        <ele>12.4</ele>
        <time>2013-09-28T16:11:54Z</time>
      </trkpt>
      <trkpt lat="48.50091" lon="-2.68253">
        <ele>12.1</ele>
        <time>2013-09-28T16:12:00Z</time>
      </trkpt>
      <trkpt lat="48.50084" lon="-2.68258">
        <ele>11.7</ele>
        <time>2013-09-28T16:12:06Z</time>
      </trkpt>
      <trkpt lat="48.50076" lon="-2.68262">
        <ele>11.8</ele>
        <time>2013-09-28T16:12:13Z</time>
      </trkpt>
      <trkpt lat="48.50075" lon="-2.68263">
        <ele>12</ele>
        <time>2013-09-28T16:12:14Z</time>
      </trkpt>
      <trkpt lat="48.5006" lon="-2.68269">
        <ele>12.7</ele>
        <time>2013-09-28T16:12:26Z</time>
      </trkpt>
      <trkpt lat="48.50053" lon="-2.68272">
        <ele>12.5</ele>
        <time>2013-09-28T16:12:32Z</time>
      </trkpt>
      <trkpt lat="48.50045" lon="-2.68276">
        <ele>11.8</ele>
        <time>2013-09-28T16:12:38Z</time>
      </trkpt>
      <trkpt lat="48.50038" lon="-2.68279">
        <ele>11.6</ele>
        <time>2013-09-28T16:12:44Z</time>
      </trkpt>
      <trkpt lat="48.5003" lon="-2.68283">
        <ele>11.6</ele>
        <time>2013-09-28T16:12:50Z</time>
      </trkpt>
      <trkpt lat="48.50023" lon="-2.68286">
        <ele>11.5</ele>
        <time>2013-09-28T16:12:56Z</time>
      </trkpt>
      <trkpt lat="48.50015" lon="-2.6829">
        <ele>12.2</ele>
        <time>2013-09-28T16:13:02Z</time>
      </trkpt>
      <trkpt lat="48.50008" lon="-2.68294">
        <ele>11.7</ele>
        <time>2013-09-28T16:13:08Z</time>
      </trkpt>
      <trkpt lat="48.5" lon="-2.68298">
        <ele>11.6</ele>
        <time>2013-09-28T16:13:14Z</time>
      </trkpt>
      <trkpt lat="48.49999" lon="-2.68298">
        <ele>11.6</ele>
        <time>2013-09-28T16:13:15Z</time>
      </trkpt>
      <trkpt lat="48.49985" lon="-2.68306">
        <ele>11.2</ele>
        <time>2013-09-28T16:13:26Z</time>
      </trkpt>
      <trkpt lat="48.49978" lon="-2.6831">
        <ele>11</ele>
        <time>2013-09-28T16:13:32Z</time>
      </trkpt>
      <trkpt lat="48.49971" lon="-2.68313">
        <ele>10.8</ele>
        <time>2013-09-28T16:13:38Z</time>
      </trkpt>
      <trkpt lat="48.49963" lon="-2.68317">
        <ele>11</ele>
        <time>2013-09-28T16:13:44Z</time>
      </trkpt>
      <trkpt lat="48.49956" lon="-2.68321">
        <ele>11.1</ele>
        <time>2013-09-28T16:13:50Z</time>
      </trkpt>
      <trkpt lat="48.49948" lon="-2.68326">
        <ele>11.4</ele>
        <time>2013-09-28T16:13:56Z</time>
      </trkpt>
      <trkpt lat="48.49942" lon="-2.68333">
        <ele>10.8</ele>
        <time>2013-09-28T16:14:02Z</time>
      </trkpt>
      <trkpt lat="48.49936" lon="-2.6834">
        <ele>11.4</ele>
        <time>2013-09-28T16:14:08Z</time>
      </trkpt>
      <trkpt lat="48.49929" lon="-2.68347">
        <ele>11.8</ele>
        <time>2013-09-28T16:14:14Z</time>
      </trkpt>
      <trkpt lat="48.49922" lon="-2.68355">
        <ele>11.4</ele>
        <time>2013-09-28T16:14:21Z</time>
      </trkpt>
      <trkpt lat="48.49921" lon="-2.68356">
        <ele>11</ele>
        <time>2013-09-28T16:14:22Z</time>
      </trkpt>
      <trkpt lat="48.49909" lon="-2.6837">
        <ele>11.4</ele>
        <time>2013-09-28T16:14:48Z</time>
      </trkpt>
      <trkpt lat="48.49902" lon="-2.68378">
        <ele>11.9</ele>
        <time>2013-09-28T16:14:55Z</time>
      </trkpt>
      <trkpt lat="48.49895" lon="-2.68386">
        <ele>11</ele>
        <time>2013-09-28T16:15:02Z</time>
      </trkpt>
      <trkpt lat="48.49888" lon="-2.68394">
        <ele>11.4</ele>
        <time>2013-09-28T16:15:09Z</time>
      </trkpt>
      <trkpt lat="48.49881" lon="-2.68402">
        <ele>12.1</ele>
        <time>2013-09-28T16:15:16Z</time>
      </trkpt>
      <trkpt lat="48.49874" lon="-2.6841">
        <ele>11.7</ele>
        <time>2013-09-28T16:15:23Z</time>
      </trkpt>
      <trkpt lat="48.49873" lon="-2.68411">
        <ele>11.7</ele>
        <time>2013-09-28T16:15:24Z</time>
      </trkpt>
      <trkpt lat="48.49861" lon="-2.68424">
        <ele>11.4</ele>
        <time>2013-09-28T16:15:35Z</time>
      </trkpt>
      <trkpt lat="48.49855" lon="-2.68431">
        <ele>11.6</ele>
        <time>2013-09-28T16:15:41Z</time>
      </trkpt>
      <trkpt lat="48.49848" lon="-2.68439">
        <ele>11.1</ele>
        <time>2013-09-28T16:15:48Z</time>
      </trkpt>
      <trkpt lat="48.4984" lon="-2.68445">
        <ele>11.7</ele>
        <time>2013-09-28T16:15:55Z</time>
      </trkpt>
      <trkpt lat="48.49833" lon="-2.6845">
        <ele>11.3</ele>
        <time>2013-09-28T16:16:01Z</time>
      </trkpt>
      <trkpt lat="48.49825" lon="-2.68454">
        <ele>11.5</ele>
        <time>2013-09-28T16:16:07Z</time>
      </trkpt>
      <trkpt lat="48.49818" lon="-2.68456">
        <ele>10.6</ele>
        <time>2013-09-28T16:16:13Z</time>
      </trkpt>
      <trkpt lat="48.49809" lon="-2.68457">
        <ele>10.5</ele>
        <time>2013-09-28T16:16:20Z</time>
      </trkpt>
      <trkpt lat="48.498" lon="-2.68457">
        <ele>10</ele>
        <time>2013-09-28T16:16:27Z</time>
      </trkpt>
      <trkpt lat="48.49799" lon="-2.68457">
        <ele>10</ele>
        <time>2013-09-28T16:16:28Z</time>
      </trkpt>
      <trkpt lat="48.49783" lon="-2.68455">
        <ele>10</ele>
        <time>2013-09-28T16:16:41Z</time>
      </trkpt>
      <trkpt lat="48.49775" lon="-2.68452">
        <ele>10.1</ele>
        <time>2013-09-28T16:16:48Z</time>
      </trkpt>
      <trkpt lat="48.49766" lon="-2.6845">
        <ele>10.9</ele>
        <time>2013-09-28T16:16:55Z</time>
      </trkpt>
      <trkpt lat="48.49758" lon="-2.68448">
        <ele>10.5</ele>
        <time>2013-09-28T16:17:02Z</time>
      </trkpt>
      <trkpt lat="48.49749" lon="-2.68444">
        <ele>10.4</ele>
        <time>2013-09-28T16:17:09Z</time>
      </trkpt>
      <trkpt lat="48.49741" lon="-2.68439">
        <ele>9.6</ele>
        <time>2013-09-28T16:17:16Z</time>
      </trkpt>
      <trkpt lat="48.49733" lon="-2.68433">
        <ele>10</ele>
        <time>2013-09-28T16:17:23Z</time>
      </trkpt>
      <trkpt lat="48.49726" lon="-2.68425">
        <ele>10.2</ele>
        <time>2013-09-28T16:17:30Z</time>
      </trkpt>
      <trkpt lat="48.49726" lon="-2.68424">
        <ele>10.1</ele>
        <time>2013-09-28T16:17:31Z</time>
      </trkpt>
      <trkpt lat="48.49714" lon="-2.68406">
        <ele>10</ele>
        <time>2013-09-28T16:17:44Z</time>
      </trkpt>
      <trkpt lat="48.49709" lon="-2.68395">
        <ele>9.7</ele>
        <time>2013-09-28T16:17:51Z</time>
      </trkpt>
      <trkpt lat="48.49704" lon="-2.68385">
        <ele>9.2</ele>
        <time>2013-09-28T16:17:58Z</time>
      </trkpt>
      <trkpt lat="48.49697" lon="-2.68377">
        <ele>9.4</ele>
        <time>2013-09-28T16:18:05Z</time>
      </trkpt>
      <trkpt lat="48.49689" lon="-2.68373">
        <ele>9.3</ele>
        <time>2013-09-28T16:18:11Z</time>
      </trkpt>
      <trkpt lat="48.49682" lon="-2.68369">
        <ele>8.5</ele>
        <time>2013-09-28T16:18:17Z</time>
      </trkpt>
      <trkpt lat="48.49674" lon="-2.68365">
        <ele>8.1</ele>
        <time>2013-09-28T16:18:23Z</time>
      </trkpt>
      <trkpt lat="48.49667" lon="-2.68361">
        <ele>8.2</ele>
        <time>2013-09-28T16:18:29Z</time>
      </trkpt>
      <trkpt lat="48.49659" lon="-2.68357">
        <ele>8.2</ele>
        <time>2013-09-28T16:18:35Z</time>
      </trkpt>
      <trkpt lat="48.49658" lon="-2.68356">
        <ele>8.2</ele>
        <time>2013-09-28T16:18:36Z</time>
      </trkpt>
      <trkpt lat="48.49645" lon="-2.68346">
        <ele>8.2</ele>
        <time>2013-09-28T16:18:47Z</time>
      </trkpt>
      <trkpt lat="48.49638" lon="-2.6834">
        <ele>8.6</ele>
        <time>2013-09-28T16:18:53Z</time>
      </trkpt>
      <trkpt lat="48.49632" lon="-2.68334">
        <ele>8.3</ele>
        <time>2013-09-28T16:18:59Z</time>
      </trkpt>
      <trkpt lat="48.49625" lon="-2.68328">
        <ele>8.2</ele>
        <time>2013-09-28T16:19:05Z</time>
      </trkpt>
      <trkpt lat="48.49618" lon="-2.68323">
        <ele>7.9</ele>
        <time>2013-09-28T16:19:11Z</time>
      </trkpt>
      <trkpt lat="48.49609" lon="-2.68318">
        <ele>8.1</ele>
        <time>2013-09-28T16:19:18Z</time>
      </trkpt>
      <trkpt lat="48.49602" lon="-2.68313">
        <ele>7.7</ele>
        <time>2013-09-28T16:19:24Z</time>
      </trkpt>
      <trkpt lat="48.49594" lon="-2.68308">
        <ele>7.9</ele>
        <time>2013-09-28T16:19:31Z</time>
      </trkpt>
      <trkpt lat="48.49587" lon="-2.68303">
        <ele>8</ele>
        <time>2013-09-28T16:19:37Z</time>
      </trkpt>
      <trkpt lat="48.49586" lon="-2.68302">
        <ele>7.8</ele>
        <time>2013-09-28T16:19:38Z</time>
      </trkpt>
      <trkpt lat="48.49572" lon="-2.68294">
        <ele>7.8</ele>
        <time>2013-09-28T16:19:49Z</time>
      </trkpt>
      <trkpt lat="48.49565" lon="-2.68289">
        <ele>8.2</ele>
        <time>2013-09-28T16:19:55Z</time>
      </trkpt>
      <trkpt lat="48.49558" lon="-2.68283">
        <ele>8</ele>
        <time>2013-09-28T16:20:01Z</time>
      </trkpt>
      <trkpt lat="48.49551" lon="-2.68278">
        <ele>7.7</ele>
        <time>2013-09-28T16:20:07Z</time>
      </trkpt>
      <trkpt lat="48.49545" lon="-2.68271">
        <ele>7.6</ele>
        <time>2013-09-28T16:20:13Z</time>
      </trkpt>
      <trkpt lat="48.4954" lon="-2.68261">
        <ele>9.3</ele>
        <time>2013-09-28T16:20:19Z</time>
      </trkpt>
      <trkpt lat="48.49536" lon="-2.6825">
        <ele>9</ele>
        <time>2013-09-28T16:20:25Z</time>
      </trkpt>
      <trkpt lat="48.49533" lon="-2.68239">
        <ele>8.3</ele>
        <time>2013-09-28T16:20:31Z</time>
      </trkpt>
      <trkpt lat="48.4953" lon="-2.68228">
        <ele>7</ele>
        <time>2013-09-28T16:20:37Z</time>
      </trkpt>
      <trkpt lat="48.49527" lon="-2.68217">
        <ele>7.4</ele>
        <time>2013-09-28T16:20:43Z</time>
      </trkpt>
      <trkpt lat="48.49527" lon="-2.68215">
        <ele>7.6</ele>
        <time>2013-09-28T16:20:44Z</time>
      </trkpt>
      <trkpt lat="48.4952" lon="-2.68192">
        <ele>7.1</ele>
        <time>2013-09-28T16:20:57Z</time>
      </trkpt>
      <trkpt lat="48.49516" lon="-2.68181">
        <ele>5.9</ele>
        <time>2013-09-28T16:21:03Z</time>
      </trkpt>
      <trkpt lat="48.49512" lon="-2.68171">
        <ele>7.6</ele>
        <time>2013-09-28T16:21:09Z</time>
      </trkpt>
      <trkpt lat="48.49508" lon="-2.68161">
        <ele>8.1</ele>
        <time>2013-09-28T16:21:15Z</time>
      </trkpt>
      <trkpt lat="48.49505" lon="-2.6815">
        <ele>7.8</ele>
        <time>2013-09-28T16:21:21Z</time>
      </trkpt>
      <trkpt lat="48.495" lon="-2.68138">
        <ele>8.3</ele>
        <time>2013-09-28T16:21:28Z</time>
      </trkpt>
      <trkpt lat="48.49496" lon="-2.68127">
        <ele>7.8</ele>
        <time>2013-09-28T16:21:35Z</time>
      </trkpt>
      <trkpt lat="48.49492" lon="-2.68116">
        <ele>8</ele>
        <time>2013-09-28T16:21:41Z</time>
      </trkpt>
      <trkpt lat="48.49488" lon="-2.68106">
        <ele>7.9</ele>
        <time>2013-09-28T16:21:47Z</time>
      </trkpt>
      <trkpt lat="48.49487" lon="-2.68104">
        <ele>8</ele>
        <time>2013-09-28T16:21:48Z</time>
      </trkpt>
      <trkpt lat="48.49478" lon="-2.68084">
        <ele>7.4</ele>
        <time>2013-09-28T16:22:01Z</time>
      </trkpt>
      <trkpt lat="48.49474" lon="-2.68074">
        <ele>8</ele>
        <time>2013-09-28T16:22:07Z</time>
      </trkpt>
      <trkpt lat="48.49469" lon="-2.68063">
        <ele>8.2</ele>
        <time>2013-09-28T16:22:14Z</time>
      </trkpt>
      <trkpt lat="48.49466" lon="-2.68051">
        <ele>8.4</ele>
        <time>2013-09-28T16:22:21Z</time>
      </trkpt>
      <trkpt lat="48.49461" lon="-2.6804">
        <ele>8.3</ele>
        <time>2013-09-28T16:22:27Z</time>
      </trkpt>
      <trkpt lat="48.49456" lon="-2.68029">
        <ele>8</ele>
        <time>2013-09-28T16:22:34Z</time>
      </trkpt>
      <trkpt lat="48.49452" lon="-2.68018">
        <ele>9.1</ele>
        <time>2013-09-28T16:22:41Z</time>
      </trkpt>
      <trkpt lat="48.49446" lon="-2.68007">
        <ele>8.4</ele>
        <time>2013-09-28T16:22:48Z</time>
      </trkpt>
      <trkpt lat="48.49446" lon="-2.68005">
        <ele>8.6</ele>
        <time>2013-09-28T16:22:49Z</time>
      </trkpt>
      <trkpt lat="48.49438" lon="-2.67986">
        <ele>9.2</ele>
        <time>2013-09-28T16:23:00Z</time>
      </trkpt>
      <trkpt lat="48.49434" lon="-2.67975">
        <ele>8.4</ele>
        <time>2013-09-28T16:23:06Z</time>
      </trkpt>
      <trkpt lat="48.4943" lon="-2.67965">
        <ele>8.3</ele>
        <time>2013-09-28T16:23:12Z</time>
      </trkpt>
      <trkpt lat="48.49426" lon="-2.67954">
        <ele>8.2</ele>
        <time>2013-09-28T16:23:19Z</time>
      </trkpt>
      <trkpt lat="48.49422" lon="-2.67942">
        <ele>8.6</ele>
        <time>2013-09-28T16:23:26Z</time>
      </trkpt>
      <trkpt lat="48.49417" lon="-2.67932">
        <ele>9</ele>
        <time>2013-09-28T16:23:33Z</time>
      </trkpt>
      <trkpt lat="48.49413" lon="-2.67923">
        <ele>8.4</ele>
        <time>2013-09-28T16:23:39Z</time>
      </trkpt>
      <trkpt lat="48.4941" lon="-2.67911">
        <ele>8.7</ele>
        <time>2013-09-28T16:23:45Z</time>
      </trkpt>
      <trkpt lat="48.49406" lon="-2.679">
        <ele>8.8</ele>
        <time>2013-09-28T16:23:51Z</time>
      </trkpt>
      <trkpt lat="48.49405" lon="-2.67898">
        <ele>9.1</ele>
        <time>2013-09-28T16:23:52Z</time>
      </trkpt>
      <trkpt lat="48.494" lon="-2.67877">
        <ele>9.4</ele>
        <time>2013-09-28T16:24:04Z</time>
      </trkpt>
      <trkpt lat="48.49396" lon="-2.67865">
        <ele>5.8</ele>
        <time>2013-09-28T16:24:11Z</time>
      </trkpt>
      <trkpt lat="48.49392" lon="-2.67854">
        <ele>7.8</ele>
        <time>2013-09-28T16:24:18Z</time>
      </trkpt>
      <trkpt lat="48.49387" lon="-2.67843">
        <ele>8.3</ele>
        <time>2013-09-28T16:24:25Z</time>
      </trkpt>
      <trkpt lat="48.49382" lon="-2.67832">
        <ele>8.8</ele>
        <time>2013-09-28T16:24:32Z</time>
      </trkpt>
      <trkpt lat="48.49374" lon="-2.67827">
        <ele>8.9</ele>
        <time>2013-09-28T16:24:42Z</time>
      </trkpt>
      <trkpt lat="48.49367" lon="-2.67821">
        <ele>10.2</ele>
        <time>2013-09-28T16:24:52Z</time>
      </trkpt>
      <trkpt lat="48.49366" lon="-2.6782">
        <ele>10.1</ele>
        <time>2013-09-28T16:24:53Z</time>
      </trkpt>
      <trkpt lat="48.4935" lon="-2.67815">
        <ele>9.8</ele>
        <time>2013-09-28T16:25:08Z</time>
      </trkpt>
      <trkpt lat="48.49342" lon="-2.67812">
        <ele>10.4</ele>
        <time>2013-09-28T16:25:15Z</time>
      </trkpt>
      <trkpt lat="48.49335" lon="-2.67806">
        <ele>10.5</ele>
        <time>2013-09-28T16:25:22Z</time>
      </trkpt>
      <trkpt lat="48.49329" lon="-2.67797">
        <ele>10.3</ele>
        <time>2013-09-28T16:25:29Z</time>
      </trkpt>
      <trkpt lat="48.49324" lon="-2.67787">
        <ele>10.5</ele>
        <time>2013-09-28T16:25:36Z</time>
      </trkpt>
      <trkpt lat="48.49319" lon="-2.67776">
        <ele>10.7</ele>
        <time>2013-09-28T16:25:43Z</time>
      </trkpt>
      <trkpt lat="48.49312" lon="-2.67769">
        <ele>10.5</ele>
        <time>2013-09-28T16:25:50Z</time>
      </trkpt>
      <trkpt lat="48.49304" lon="-2.67768">
        <ele>11.2</ele>
        <time>2013-09-28T16:25:56Z</time>
      </trkpt>
      <trkpt lat="48.49303" lon="-2.67769">
        <ele>11.1</ele>
        <time>2013-09-28T16:25:57Z</time>
      </trkpt>
      <trkpt lat="48.49289" lon="-2.67772">
        <ele>10.3</ele>
        <time>2013-09-28T16:26:08Z</time>
      </trkpt>
      <trkpt lat="48.4928" lon="-2.67774">
        <ele>10.2</ele>
        <time>2013-09-28T16:26:15Z</time>
      </trkpt>
      <trkpt lat="48.49271" lon="-2.67776">
        <ele>10.3</ele>
        <time>2013-09-28T16:26:22Z</time>
      </trkpt>
      <trkpt lat="48.49263" lon="-2.67777">
        <ele>9.7</ele>
        <time>2013-09-28T16:26:28Z</time>
      </trkpt>
      <trkpt lat="48.49255" lon="-2.67778">
        <ele>9.6</ele>
        <time>2013-09-28T16:26:35Z</time>
      </trkpt>
      <trkpt lat="48.49247" lon="-2.67778">
        <ele>10.1</ele>
        <time>2013-09-28T16:26:42Z</time>
      </trkpt>
      <trkpt lat="48.49238" lon="-2.67776">
        <ele>10.8</ele>
        <time>2013-09-28T16:26:49Z</time>
      </trkpt>
      <trkpt lat="48.49231" lon="-2.67771">
        <ele>11.4</ele>
        <time>2013-09-28T16:26:56Z</time>
      </trkpt>
      <trkpt lat="48.49223" lon="-2.67766">
        <ele>11.2</ele>
        <time>2013-09-28T16:27:03Z</time>
      </trkpt>
      <trkpt lat="48.49222" lon="-2.67766">
        <ele>11.3</ele>
        <time>2013-09-28T16:27:04Z</time>
      </trkpt>
      <trkpt lat="48.49212" lon="-2.67749">
        <ele>11</ele>
        <time>2013-09-28T16:27:17Z</time>
      </trkpt>
      <trkpt lat="48.49209" lon="-2.67736">
        <ele>10.6</ele>
        <time>2013-09-28T16:27:24Z</time>
      </trkpt>
      <trkpt lat="48.49206" lon="-2.67725">
        <ele>10.7</ele>
        <time>2013-09-28T16:27:30Z</time>
      </trkpt>
      <trkpt lat="48.49202" lon="-2.67713">
        <ele>11.4</ele>
        <time>2013-09-28T16:27:37Z</time>
      </trkpt>
      <trkpt lat="48.49198" lon="-2.67703">
        <ele>10.9</ele>
        <time>2013-09-28T16:27:43Z</time>
      </trkpt>
      <trkpt lat="48.49195" lon="-2.67691">
        <ele>11</ele>
        <time>2013-09-28T16:27:50Z</time>
      </trkpt>
      <trkpt lat="48.49195" lon="-2.67679">
        <ele>11.3</ele>
        <time>2013-09-28T16:27:56Z</time>
      </trkpt>
      <trkpt lat="48.49197" lon="-2.67667">
        <ele>11</ele>
        <time>2013-09-28T16:28:03Z</time>
      </trkpt>
      <trkpt lat="48.492" lon="-2.67655">
        <ele>11.9</ele>
        <time>2013-09-28T16:28:10Z</time>
      </trkpt>
      <trkpt lat="48.492" lon="-2.67654">
        <ele>12</ele>
        <time>2013-09-28T16:28:11Z</time>
      </trkpt>
      <trkpt lat="48.49207" lon="-2.67633">
        <ele>11.3</ele>
        <time>2013-09-28T16:28:24Z</time>
      </trkpt>
      <trkpt lat="48.49211" lon="-2.67622">
        <ele>11.1</ele>
        <time>2013-09-28T16:28:31Z</time>
      </trkpt>
      <trkpt lat="48.49215" lon="-2.67611">
        <ele>11.1</ele>
        <time>2013-09-28T16:28:37Z</time>
      </trkpt>
      <trkpt lat="48.49219" lon="-2.676">
        <ele>11.1</ele>
        <time>2013-09-28T16:28:43Z</time>
      </trkpt>
      <trkpt lat="48.49222" lon="-2.67589">
        <ele>10.8</ele>
        <time>2013-09-28T16:28:49Z</time>
      </trkpt>
      <trkpt lat="48.49225" lon="-2.67577">
        <ele>10.8</ele>
        <time>2013-09-28T16:28:56Z</time>
      </trkpt>
      <trkpt lat="48.49228" lon="-2.67565">
        <ele>10.8</ele>
        <time>2013-09-28T16:29:02Z</time>
      </trkpt>
      <trkpt lat="48.49231" lon="-2.67553">
        <ele>11.1</ele>
        <time>2013-09-28T16:29:09Z</time>
      </trkpt>
      <trkpt lat="48.49234" lon="-2.67541">
        <ele>11.2</ele>
        <time>2013-09-28T16:29:16Z</time>
      </trkpt>
      <trkpt lat="48.49234" lon="-2.67539">
        <ele>11.1</ele>
        <time>2013-09-28T16:29:17Z</time>
      </trkpt>
      <trkpt lat="48.49241" lon="-2.67519">
        <ele>10.9</ele>
        <time>2013-09-28T16:29:30Z</time>
      </trkpt>
      <trkpt lat="48.49245" lon="-2.67506">
        <ele>10.4</ele>
        <time>2013-09-28T16:29:37Z</time>
      </trkpt>
      <trkpt lat="48.49251" lon="-2.67496">
        <ele>10.9</ele>
        <time>2013-09-28T16:29:44Z</time>
      </trkpt>
      <trkpt lat="48.49257" lon="-2.67489">
        <ele>11.3</ele>
        <time>2013-09-28T16:29:50Z</time>
      </trkpt>
      <trkpt lat="48.49264" lon="-2.67482">
        <ele>10.4</ele>
        <time>2013-09-28T16:29:56Z</time>
      </trkpt>
      <trkpt lat="48.4927" lon="-2.67476">
        <ele>9.7</ele>
        <time>2013-09-28T16:30:02Z</time>
      </trkpt>
      <trkpt lat="48.49275" lon="-2.67466">
        <ele>9.5</ele>
        <time>2013-09-28T16:30:09Z</time>
      </trkpt>
      <trkpt lat="48.49274" lon="-2.67455">
        <ele>9.5</ele>
        <time>2013-09-28T16:30:15Z</time>
      </trkpt>
      <trkpt lat="48.49272" lon="-2.67443">
        <ele>9.6</ele>
        <time>2013-09-28T16:30:21Z</time>
      </trkpt>
      <trkpt lat="48.49272" lon="-2.67441">
        <ele>9.5</ele>
        <time>2013-09-28T16:30:22Z</time>
      </trkpt>
      <trkpt lat="48.49271" lon="-2.67418">
        <ele>9.8</ele>
        <time>2013-09-28T16:30:35Z</time>
      </trkpt>
      <trkpt lat="48.49274" lon="-2.67406">
        <ele>10.1</ele>
        <time>2013-09-28T16:30:42Z</time>
      </trkpt>
      <trkpt lat="48.49277" lon="-2.67395">
        <ele>9.7</ele>
        <time>2013-09-28T16:30:49Z</time>
      </trkpt>
      <trkpt lat="48.4928" lon="-2.67384">
        <ele>10.6</ele>
        <time>2013-09-28T16:30:56Z</time>
      </trkpt>
      <trkpt lat="48.49282" lon="-2.67372">
        <ele>10.4</ele>
        <time>2013-09-28T16:31:03Z</time>
      </trkpt>
      <trkpt lat="48.49282" lon="-2.6736">
        <ele>9.4</ele>
        <time>2013-09-28T16:31:10Z</time>
      </trkpt>
      <trkpt lat="48.49277" lon="-2.67349">
        <ele>9.3</ele>
        <time>2013-09-28T16:31:17Z</time>
      </trkpt>
      <trkpt lat="48.49273" lon="-2.67337">
        <ele>9</ele>
        <time>2013-09-28T16:31:24Z</time>
      </trkpt>
      <trkpt lat="48.49272" lon="-2.67336">
        <ele>8.8</ele>
        <time>2013-09-28T16:31:25Z</time>
      </trkpt>
      <trkpt lat="48.49268" lon="-2.67312">
        <ele>10.4</ele>
        <time>2013-09-28T16:31:40Z</time>
      </trkpt>
      <trkpt lat="48.49267" lon="-2.67301">
        <ele>10.3</ele>
        <time>2013-09-28T16:31:47Z</time>
      </trkpt>
      <trkpt lat="48.49267" lon="-2.67288">
        <ele>10.3</ele>
        <time>2013-09-28T16:31:53Z</time>
      </trkpt>
      <trkpt lat="48.49266" lon="-2.67274">
        <ele>10.1</ele>
        <time>2013-09-28T16:32:00Z</time>
      </trkpt>
      <trkpt lat="48.49267" lon="-2.67262">
        <ele>10.3</ele>
        <time>2013-09-28T16:32:06Z</time>
      </trkpt>
      <trkpt lat="48.49268" lon="-2.67249">
        <ele>10.6</ele>
        <time>2013-09-28T16:32:12Z</time>
      </trkpt>
      <trkpt lat="48.4927" lon="-2.67237">
        <ele>11.3</ele>
        <time>2013-09-28T16:32:18Z</time>
      </trkpt>
      <trkpt lat="48.49271" lon="-2.67225">
        <ele>10.6</ele>
        <time>2013-09-28T16:32:24Z</time>
      </trkpt>
      <trkpt lat="48.49271" lon="-2.67212">
        <ele>10.4</ele>
        <time>2013-09-28T16:32:31Z</time>
      </trkpt>
      <trkpt lat="48.49271" lon="-2.67211">
        <ele>10.2</ele>
        <time>2013-09-28T16:32:32Z</time>
      </trkpt>
      <trkpt lat="48.49268" lon="-2.67196">
        <ele>10</ele>
        <time>2013-09-28T16:32:46Z</time>
      </trkpt>
      <trkpt lat="48.49268" lon="-2.67196">
        <ele>10</ele>
        <time>2013-09-28T16:32:46Z</time>
      </trkpt>
    </trkseg>
  </trk>
</gpx>